Darstellungsparameter: Aktuell verwendete Einstellungen:
Skalierung der Graphiken ... ?
xyx+y,   Skalierungsfaktor:      Skalierung: Modus: x, Faktor: 1
Darstellungszeitraum ... ?
Vom - - bis: - -   Zeitraum: 18.11.2011 - 01.12.2011
Min/Max/Avg-Anzeige ... ?
Zeige MMA aktuell
Zeige MMA Monat
Zeige MMA alles
Zeige --A aktuell
Zeige --A Monat
Zeige --A alles
Keine MMA-Anzeige
MMA:
Average (ber die Originaldaten)
MMA-Basis: 18.11.2011 - 01.12.2011
Quicknavigation für Darstellung... ?
Tage:      1T, 2T, 3T, 5T -1T -2T -3T -5T +1T +2T +3T +5T
Wochen: 1W, 2W, 3W -1W -2W -3W +1W +2W +3W
Monate: 1M, 3M, 6M -1M -3M -6M +1M +3M +6M
Jahre:    1J, 3J, 5J, 10J -1J -3J -5J -10J +1J +3J +5J +10J
Nutze für die Darstellung ... ?
Originaldaten oder Mittelwerte auf ...
Stundenbasis Tagesbasis Wochenbasis
Monatsbasis Jahresbasis      Datenbasis: Original-Daten
Darstellen als:
Statistik (Auto) Statistik J:M      Darstellung:
Zur Graphik,    zurück zur Übersicht aller Sensoren.
 
Tabellarische Datenbersicht: ?
 
Sensor: Nr:Datum:Temp:Abs-Feuchte:Windchill:Wind:
Aussen-T/F 1 18-11-2011 00:04:05 6.3 C 6.14 g/m*3 6.3 C 0 km/h
2 18-11-2011 00:16:05 6.2 C 6.1 g/m*3 6.2 C 0 km/h
3 18-11-2011 00:28:05 6.2 C 6.18 g/m*3 6.2 C 0 km/h
4 18-11-2011 00:40:05 6.3 C 6.22 g/m*3 6.3 C 0 km/h
5 18-11-2011 00:52:05 6.6 C 6.42 g/m*3 6.6 C 0 km/h
6 18-11-2011 01:04:05 6.7 C 6.38 g/m*3 6.7 C 0 km/h
7 18-11-2011 01:16:05 6.8 C 6.5 g/m*3 6.8 C 0 km/h
8 18-11-2011 01:28:05 7 C 6.51 g/m*3 7 C 0 km/h
9 18-11-2011 01:40:05 6.9 C 6.54 g/m*3 6.9 C 0 km/h
10 18-11-2011 01:52:05 6.7 C 6.46 g/m*3 6.7 C 0 km/h
11 18-11-2011 02:04:05 6.7 C 6.46 g/m*3 6.7 C 0 km/h
12 18-11-2011 02:16:05 6.7 C 6.53 g/m*3 6.7 C 0 km/h
13 18-11-2011 02:28:05 6.6 C 6.49 g/m*3 6.6 C 0 km/h
14 18-11-2011 02:40:05 6.5 C 6.45 g/m*3 6.5 C 0 km/h
15 18-11-2011 02:52:05 6.5 C 6.45 g/m*3 6.5 C 0 km/h
16 18-11-2011 03:04:06 6.5 C 6.45 g/m*3 6.5 C 0 km/h
17 18-11-2011 03:16:06 6.4 C 6.41 g/m*3 6.4 C 0 km/h
18 18-11-2011 03:28:06 6.3 C 6.37 g/m*3 6.3 C 0 km/h
19 18-11-2011 03:40:06 6.4 C 6.41 g/m*3 6.4 C 0 km/h
20 18-11-2011 03:52:06 6.4 C 6.48 g/m*3 6.4 C 0 km/h
21 18-11-2011 04:04:06 6.3 C 6.44 g/m*3 6.3 C 0 km/h
22 18-11-2011 04:16:06 6.3 C 6.44 g/m*3 6.3 C 0 km/h
23 18-11-2011 04:28:06 6.4 C 6.48 g/m*3 6.4 C 0 km/h
24 18-11-2011 04:40:06 6.4 C 6.56 g/m*3 6.4 C 0 km/h
25 18-11-2011 04:52:06 6.5 C 6.6 g/m*3 6.5 C 0 km/h
Sensor: Nr:Datum:Temp:Abs-Feuchte:Windchill:Wind:
Aussen-T/F 26 18-11-2011 05:04:06 6.5 C 6.6 g/m*3 6.5 C 0 km/h
27 18-11-2011 05:16:06 6.4 C 6.63 g/m*3 6.4 C 0 km/h
28 18-11-2011 05:28:06 6.4 C 6.63 g/m*3 6.4 C 0 km/h
29 18-11-2011 05:40:06 6.4 C 6.63 g/m*3 6.4 C 0 km/h
30 18-11-2011 05:52:06 6.3 C 6.59 g/m*3 6.3 C 0 km/h
31 18-11-2011 06:04:06 6.2 C 6.55 g/m*3 6.2 C 0 km/h
32 18-11-2011 06:16:06 6.2 C 6.55 g/m*3 6.2 C 0 km/h
33 18-11-2011 06:28:06 6.2 C 6.55 g/m*3 6.2 C 0 km/h
34 18-11-2011 06:40:06 6.1 C 6.5 g/m*3 6.1 C 0 km/h
35 18-11-2011 06:52:06 6.2 C 6.55 g/m*3 6.2 C 0 km/h
36 18-11-2011 07:04:07 6.1 C 6.5 g/m*3 6.1 C 0 km/h
37 18-11-2011 07:16:04 6.2 C 6.62 g/m*3 6.2 C 0 km/h
38 18-11-2011 07:28:04 6.2 C 6.62 g/m*3 6.2 C 0 km/h
39 18-11-2011 07:40:04 6.2 C 6.62 g/m*3 6.2 C 0 km/h
40 18-11-2011 07:52:02 6.1 C 6.58 g/m*3 6.1 C 0 km/h
41 18-11-2011 08:04:02 6.2 C 6.62 g/m*3 6.2 C 0 km/h
42 18-11-2011 08:16:03 6.3 C 6.66 g/m*3 6.3 C 0 km/h
43 18-11-2011 08:28:03 6.4 C 6.71 g/m*3 6.4 C 0 km/h
44 18-11-2011 08:40:02 6.4 C 6.71 g/m*3 6.4 C 0 km/h
45 18-11-2011 08:52:02 6.6 C 6.79 g/m*3 6.6 C 0 km/h
46 18-11-2011 09:04:02 6.9 C 6.93 g/m*3 6.9 C 0 km/h
47 18-11-2011 09:16:02 7.1 C 6.94 g/m*3 7.1 C 0 km/h
48 18-11-2011 09:28:02 7.2 C 6.99 g/m*3 7.2 C 0 km/h
49 18-11-2011 09:40:02 7.4 C 7 g/m*3 7.4 C 0 km/h
50 18-11-2011 09:52:02 7.5 C 7.04 g/m*3 7.5 C 0 km/h
Sensor: Nr:Datum:Temp:Abs-Feuchte:Windchill:Wind:
Aussen-T/F 51 18-11-2011 10:04:02 7.7 C 7.05 g/m*3 7.7 C 0 km/h
52 18-11-2011 10:16:02 7.8 C 7.02 g/m*3 7.8 C 0 km/h
53 18-11-2011 10:28:02 7.9 C 6.9 g/m*3 7.9 C 0 km/h
54 18-11-2011 10:40:01 8.2 C 6.87 g/m*3 8.2 C 0 km/h
55 18-11-2011 10:52:02 8.2 C 6.7 g/m*3 8.2 C 0 km/h
56 18-11-2011 11:04:01 8.3 C 6.66 g/m*3 8.3 C 0 km/h
57 18-11-2011 11:16:01 8.8 C 6.79 g/m*3 8.8 C 0 km/h
58 18-11-2011 11:28:01 9 C 6.7 g/m*3 9 C 0 km/h
59 18-11-2011 11:40:02 9.3 C 6.74 g/m*3 9.3 C 0 km/h
60 18-11-2011 11:52:02 9.6 C 6.6 g/m*3 9.6 C 0 km/h
61 18-11-2011 12:04:02 10 C 6.67 g/m*3 10 C 0 km/h
62 18-11-2011 12:16:02 9.9 C 6.72 g/m*3 9.9 C 0 km/h
63 18-11-2011 12:28:02 9.9 C 6.72 g/m*3 9.9 C 0 km/h
64 18-11-2011 12:40:02 9.8 C 6.59 g/m*3 9.8 C 0 km/h
65 18-11-2011 12:52:02 10.3 C 6.61 g/m*3 10.3 C 0 km/h
66 18-11-2011 13:04:02 10 C 6.48 g/m*3 10 C 0 km/h
67 18-11-2011 13:16:02 10.2 C 6.57 g/m*3 10.2 C 0 km/h
68 18-11-2011 13:28:02 10.2 C 6.47 g/m*3 10.2 C 0 km/h
69 18-11-2011 13:40:02 10.3 C 6.51 g/m*3 10.3 C 0 km/h
70 18-11-2011 13:52:01 10.1 C 6.52 g/m*3 10.1 C 0 km/h
71 18-11-2011 14:04:01 10.2 C 6.57 g/m*3 10.2 C 0 km/h
72 18-11-2011 14:16:01 10.1 C 6.52 g/m*3 10.1 C 0 km/h
73 18-11-2011 14:28:01 10.1 C 6.52 g/m*3 10.1 C 0 km/h
74 18-11-2011 14:40:01 10 C 6.48 g/m*3 10 C 0 km/h
75 18-11-2011 14:52:01 10 C 6.58 g/m*3 10 C 0 km/h
Sensor: Nr:Datum:Temp:Abs-Feuchte:Windchill:Wind:
Aussen-T/F 76 18-11-2011 15:04:01 9.8 C 6.68 g/m*3 9.8 C 0 km/h
77 18-11-2011 15:16:02 9.7 C 6.64 g/m*3 9.7 C 0 km/h
78 18-11-2011 15:28:02 9.6 C 6.69 g/m*3 9.6 C 0 km/h
79 18-11-2011 15:40:01 9.3 C 6.65 g/m*3 9.3 C 0 km/h
80 18-11-2011 15:52:02 9.2 C 6.88 g/m*3 9.2 C 0 km/h
81 18-11-2011 16:04:02 8.9 C 6.92 g/m*3 8.9 C 0 km/h
82 18-11-2011 16:16:02 8.7 C 7.01 g/m*3 8.7 C 0 km/h
83 18-11-2011 16:28:02 8.4 C 6.87 g/m*3 8.4 C 0 km/h
84 18-11-2011 16:40:02 8.3 C 6.91 g/m*3 8.3 C 0 km/h
85 18-11-2011 16:52:01 8.1 C 6.91 g/m*3 8.1 C 0 km/h
86 18-11-2011 17:04:01 8 C 6.94 g/m*3 8 C 0 km/h
87 18-11-2011 17:16:01 7.9 C 6.98 g/m*3 7.9 C 0 km/h
88 18-11-2011 17:28:01 7.8 C 6.94 g/m*3 7.8 C 0 km/h
89 18-11-2011 17:40:01 7.8 C 7.02 g/m*3 7.8 C 0 km/h
90 18-11-2011 17:52:01 7.7 C 6.97 g/m*3 7.7 C 0 km/h
91 18-11-2011 18:04:01 7.8 C 7.02 g/m*3 7.8 C 0 km/h
92 18-11-2011 18:16:01 7.6 C 6.93 g/m*3 7.6 C 0 km/h
93 18-11-2011 18:28:01 7.6 C 7.01 g/m*3 7.6 C 0 km/h
94 18-11-2011 18:40:02 7.5 C 6.96 g/m*3 7.5 C 0 km/h
95 18-11-2011 18:52:02 7.5 C 6.96 g/m*3 7.5 C 0 km/h
96 18-11-2011 19:04:02 7.5 C 6.96 g/m*3 7.5 C 0 km/h
97 18-11-2011 19:16:02 7.4 C 6.92 g/m*3 7.4 C 0 km/h
98 18-11-2011 19:28:02 7.3 C 6.87 g/m*3 7.3 C 0 km/h
99 18-11-2011 19:40:02 7.3 C 6.87 g/m*3 7.3 C 0 km/h
100 18-11-2011 19:52:02 7.3 C 6.87 g/m*3 7.3 C 0 km/h
Sensor: Nr:Datum:Temp:Abs-Feuchte:Windchill:Wind:
Aussen-T/F 101 18-11-2011 20:04:02 7.3 C 6.87 g/m*3 7.3 C 0 km/h
102 18-11-2011 20:16:02 7.1 C 6.79 g/m*3 7.1 C 0 km/h
103 18-11-2011 20:28:02 7.1 C 6.79 g/m*3 7.1 C 0 km/h
104 18-11-2011 20:40:02 6.9 C 6.77 g/m*3 6.9 C 0 km/h
105 18-11-2011 20:52:01 6.9 C 6.77 g/m*3 6.9 C 0 km/h
106 18-11-2011 21:04:02 6.9 C 6.77 g/m*3 6.9 C 0 km/h
107 18-11-2011 21:16:02 7 C 6.74 g/m*3 7 C 0 km/h
108 18-11-2011 21:28:02 6.9 C 6.77 g/m*3 6.9 C 0 km/h
109 18-11-2011 21:40:02 6.8 C 6.73 g/m*3 6.8 C 0 km/h
110 18-11-2011 21:52:02 6.8 C 6.73 g/m*3 6.8 C 0 km/h
111 18-11-2011 22:04:02 6.7 C 6.76 g/m*3 6.7 C 0 km/h
112 18-11-2011 22:16:02 6.6 C 6.72 g/m*3 6.6 C 0 km/h
113 18-11-2011 22:28:02 6.7 C 6.76 g/m*3 6.7 C 0 km/h
114 18-11-2011 22:40:02 6.6 C 6.72 g/m*3 6.6 C 0 km/h
115 18-11-2011 22:52:01 6.7 C 6.76 g/m*3 6.7 C 0 km/h
116 18-11-2011 23:04:02 6.6 C 6.72 g/m*3 6.6 C 0 km/h
117 18-11-2011 23:16:02 6.7 C 6.76 g/m*3 6.7 C 0 km/h
118 18-11-2011 23:28:02 6.5 C 6.67 g/m*3 6.5 C 0 km/h
119 18-11-2011 23:40:01 6.4 C 6.63 g/m*3 6.4 C 0 km/h
120 18-11-2011 23:52:02 6.4 C 6.63 g/m*3 6.4 C 0 km/h
121 19-11-2011 00:04:01 6.3 C 6.59 g/m*3 6.3 C 0 km/h
122 19-11-2011 00:16:01 6.4 C 6.71 g/m*3 6.4 C 0 km/h
123 19-11-2011 00:28:01 6.4 C 6.71 g/m*3 6.4 C 0 km/h
124 19-11-2011 00:40:02 6.4 C 6.71 g/m*3 6.4 C 0 km/h
125 19-11-2011 00:52:01 6.3 C 6.66 g/m*3 6.3 C 0 km/h
Sensor: Nr:Datum:Temp:Abs-Feuchte:Windchill:Wind:
Aussen-T/F 126 19-11-2011 01:04:02 6.4 C 6.71 g/m*3 6.4 C 0 km/h
127 19-11-2011 01:16:01 6.3 C 6.66 g/m*3 6.3 C 0 km/h
128 19-11-2011 01:28:01 6.3 C 6.66 g/m*3 6.3 C 0 km/h
129 19-11-2011 01:40:02 6.1 C 6.58 g/m*3 6.1 C 0 km/h
130 19-11-2011 01:52:01 6.1 C 6.58 g/m*3 6.1 C 0 km/h
131 19-11-2011 02:04:02 6 C 6.53 g/m*3 6 C 0 km/h
132 19-11-2011 02:16:02 6.2 C 6.62 g/m*3 6.2 C 0 km/h
133 19-11-2011 02:28:02 5.9 C 6.56 g/m*3 5.9 C 0 km/h
134 19-11-2011 02:40:01 6 C 6.53 g/m*3 6 C 0 km/h
135 19-11-2011 02:52:02 6.2 C 6.69 g/m*3 6.2 C 0 km/h
136 19-11-2011 03:04:02 6.2 C 6.69 g/m*3 6.2 C 0 km/h
137 19-11-2011 03:16:01 6.2 C 6.69 g/m*3 6.2 C 0 km/h
138 19-11-2011 03:28:01 6.2 C 6.69 g/m*3 6.2 C 0 km/h
139 19-11-2011 03:40:01 6.1 C 6.65 g/m*3 6.1 C 0 km/h
140 19-11-2011 03:52:01 5.8 C 6.52 g/m*3 5.8 C 0 km/h
141 19-11-2011 04:04:01 5.3 C 6.31 g/m*3 5.3 C 0 km/h
142 19-11-2011 04:16:02 5 C 6.18 g/m*3 5 C 0 km/h
143 19-11-2011 04:28:02 4.8 C 6.1 g/m*3 4.8 C 0 km/h
144 19-11-2011 04:40:01 4.6 C 6.02 g/m*3 4.6 C 0 km/h
145 19-11-2011 04:52:02 4.2 C 5.86 g/m*3 4.2 C 0 km/h
146 19-11-2011 05:04:01 4.1 C 5.82 g/m*3 4.1 C 0 km/h
147 19-11-2011 05:16:02 3.8 C 5.77 g/m*3 3.8 C 0 km/h
148 19-11-2011 05:28:02 3.8 C 5.77 g/m*3 3.8 C 0 km/h
149 19-11-2011 05:40:01 4 C 5.79 g/m*3 4 C 0 km/h
150 19-11-2011 05:52:02 4.1 C 5.89 g/m*3 4.1 C 0 km/h
Sensor: Nr:Datum:Temp:Abs-Feuchte:Windchill:Wind:
Aussen-T/F 151 19-11-2011 06:04:01 4.1 C 5.89 g/m*3 4.1 C 0 km/h
152 19-11-2011 06:16:01 4.1 C 5.89 g/m*3 4.1 C 0 km/h
153 19-11-2011 06:28:01 4 C 5.85 g/m*3 4 C 0 km/h
154 19-11-2011 06:40:01 3.5 C 5.66 g/m*3 3.5 C 0 km/h
155 19-11-2011 06:52:01 3.2 C 5.54 g/m*3 3.2 C 0 km/h
156 19-11-2011 07:04:01 3.8 C 5.83 g/m*3 3.8 C 0 km/h
157 19-11-2011 07:16:01 3.9 C 5.87 g/m*3 3.9 C 0 km/h
158 19-11-2011 07:28:01 4 C 5.85 g/m*3 4 C 0 km/h
159 19-11-2011 07:40:02 3.9 C 5.87 g/m*3 3.9 C 0 km/h
160 19-11-2011 07:52:01 4 C 5.91 g/m*3 4 C 0 km/h
161 19-11-2011 08:04:02 4 C 5.91 g/m*3 4 C 0 km/h
162 19-11-2011 08:16:01 4 C 5.91 g/m*3 4 C 0 km/h
163 19-11-2011 08:28:01 4.1 C 5.95 g/m*3 4.1 C 0 km/h
164 19-11-2011 08:40:02 4.3 C 6.03 g/m*3 4.3 C 0 km/h
165 19-11-2011 08:52:01 4.3 C 6.03 g/m*3 4.3 C 0 km/h
166 19-11-2011 09:04:02 4.3 C 6.03 g/m*3 4.3 C 0 km/h
167 19-11-2011 09:16:01 4.4 C 6.07 g/m*3 4.4 C 0 km/h
168 19-11-2011 09:28:01 4.3 C 6.03 g/m*3 4.3 C 0 km/h
169 19-11-2011 09:40:01 4.3 C 6.03 g/m*3 4.3 C 0 km/h
170 19-11-2011 09:52:01 4.2 C 5.99 g/m*3 4.2 C 0 km/h
171 19-11-2011 10:04:01 4.5 C 6.11 g/m*3 4.5 C 0 km/h
172 19-11-2011 10:16:02 4.5 C 6.11 g/m*3 4.5 C 0 km/h
173 19-11-2011 10:28:02 4.6 C 6.15 g/m*3 4.6 C 0 km/h
174 19-11-2011 10:40:01 4.9 C 6.28 g/m*3 4.9 C 0 km/h
175 19-11-2011 10:52:02 5.2 C 6.4 g/m*3 5.2 C 0 km/h
Sensor: Nr:Datum:Temp:Abs-Feuchte:Windchill:Wind:
Aussen-T/F 176 19-11-2011 11:04:01 5.2 C 6.4 g/m*3 5.2 C 0 km/h
177 19-11-2011 11:16:02 5.4 C 6.49 g/m*3 5.4 C 0 km/h
178 19-11-2011 11:28:02 5.6 C 6.57 g/m*3 5.6 C 0 km/h
179 19-11-2011 11:40:01 5.6 C 6.5 g/m*3 5.6 C 0 km/h
180 19-11-2011 11:52:02 5.6 C 6.5 g/m*3 5.6 C 0 km/h
181 19-11-2011 12:04:01 5.7 C 6.55 g/m*3 5.7 C 0 km/h
182 19-11-2011 12:16:01 6.1 C 6.65 g/m*3 6.1 C 0 km/h
183 19-11-2011 12:28:01 6.2 C 6.62 g/m*3 6.2 C 0 km/h
184 19-11-2011 12:40:02 6.3 C 6.66 g/m*3 6.3 C 0 km/h
185 19-11-2011 12:52:01 6.1 C 6.5 g/m*3 6.1 C 0 km/h
186 19-11-2011 13:04:02 6.1 C 6.5 g/m*3 6.1 C 0 km/h
187 19-11-2011 13:16:01 6.2 C 6.55 g/m*3 6.2 C 0 km/h
188 19-11-2011 13:28:01 6.2 C 6.55 g/m*3 6.2 C 0 km/h
189 19-11-2011 13:40:02 6.5 C 6.67 g/m*3 6.5 C 0 km/h
190 19-11-2011 13:52:01 6.7 C 6.76 g/m*3 6.7 C 0 km/h
191 19-11-2011 14:04:02 7 C 6.9 g/m*3 7 C 0 km/h
192 19-11-2011 14:16:01 7.2 C 6.91 g/m*3 7.2 C 0 km/h
193 19-11-2011 14:28:01 7.5 C 7.04 g/m*3 7.5 C 0 km/h
194 19-11-2011 14:40:01 7.5 C 7.04 g/m*3 7.5 C 0 km/h
195 19-11-2011 14:52:01 7.5 C 6.96 g/m*3 7.5 C 0 km/h
196 19-11-2011 15:04:01 7.5 C 6.96 g/m*3 7.5 C 0 km/h
197 19-11-2011 15:16:02 7.4 C 6.76 g/m*3 7.4 C 0 km/h
198 19-11-2011 15:28:02 7.6 C 6.69 g/m*3 7.6 C 0 km/h
199 19-11-2011 15:40:01 7.4 C 6.52 g/m*3 7.4 C 0 km/h
200 19-11-2011 15:52:02 7.4 C 6.44 g/m*3 7.4 C 0 km/h
Sensor: Nr:Datum:Temp:Abs-Feuchte:Windchill:Wind:
Aussen-T/F 201 19-11-2011 16:04:01 7.2 C 6.28 g/m*3 7.2 C 0 km/h
202 19-11-2011 16:16:02 6.8 C 6.19 g/m*3 6.8 C 0 km/h
203 19-11-2011 16:28:02 6.6 C 6.11 g/m*3 6.6 C 0 km/h
204 19-11-2011 16:40:01 6.2 C 6.03 g/m*3 6.2 C 0 km/h
205 19-11-2011 16:52:02 5.8 C 6.02 g/m*3 5.8 C 0 km/h
206 19-11-2011 17:04:01 5.7 C 5.98 g/m*3 5.7 C 0 km/h
207 19-11-2011 17:16:01 5.8 C 6.02 g/m*3 5.8 C 0 km/h
208 19-11-2011 17:28:01 5.2 C 5.78 g/m*3 5.2 C 0 km/h
209 19-11-2011 17:40:02 5.2 C 5.85 g/m*3 5.2 C 0 km/h
210 19-11-2011 17:52:01 5.1 C 5.88 g/m*3 5.1 C 0 km/h
211 19-11-2011 18:04:02 5.1 C 5.88 g/m*3 5.1 C 0 km/h
212 19-11-2011 18:16:01 4.5 C 5.72 g/m*3 4.5 C 0 km/h
213 19-11-2011 18:28:01 4.9 C 5.94 g/m*3 4.9 C 0 km/h
214 19-11-2011 18:40:02 5.5 C 6.18 g/m*3 5.5 C 0 km/h
215 19-11-2011 18:52:01 5.5 C 6.18 g/m*3 5.5 C 0 km/h
216 19-11-2011 19:04:02 5.3 C 6.1 g/m*3 5.3 C 0 km/h
217 19-11-2011 19:16:01 4.5 C 5.78 g/m*3 4.5 C 0 km/h
218 19-11-2011 19:28:01 4.9 C 5.94 g/m*3 4.9 C 0 km/h
219 19-11-2011 19:40:01 4.8 C 5.97 g/m*3 4.8 C 0 km/h
220 19-11-2011 19:52:01 4.8 C 5.97 g/m*3 4.8 C 0 km/h
221 19-11-2011 20:04:01 5.1 C 6.09 g/m*3 5.1 C 0 km/h
222 19-11-2011 20:16:02 5.6 C 6.36 g/m*3 5.6 C 0 km/h
223 19-11-2011 20:28:02 5.7 C 6.4 g/m*3 5.7 C 0 km/h
224 19-11-2011 20:40:01 5.7 C 6.4 g/m*3 5.7 C 0 km/h
225 19-11-2011 20:52:02 5.8 C 6.45 g/m*3 5.8 C 0 km/h
Sensor: Nr:Datum:Temp:Abs-Feuchte:Windchill:Wind:
Aussen-T/F 226 19-11-2011 21:04:01 5.7 C 6.4 g/m*3 5.7 C 0 km/h
227 19-11-2011 21:16:02 5.8 C 6.45 g/m*3 5.8 C 0 km/h
228 19-11-2011 21:28:02 5.5 C 6.25 g/m*3 5.5 C 0 km/h
229 19-11-2011 21:40:01 5.2 C 6.13 g/m*3 5.2 C 0 km/h
230 19-11-2011 21:52:02 5.3 C 6.17 g/m*3 5.3 C 0 km/h
231 19-11-2011 22:04:01 5.7 C 6.33 g/m*3 5.7 C 0 km/h
232 19-11-2011 22:16:01 5.8 C 6.38 g/m*3 5.8 C 0 km/h
233 19-11-2011 22:28:01 5.9 C 6.49 g/m*3 5.9 C 0 km/h
234 19-11-2011 22:40:01 5.8 C 6.38 g/m*3 5.8 C 0 km/h
235 19-11-2011 22:52:01 5.6 C 6.22 g/m*3 5.6 C 0 km/h
236 19-11-2011 23:04:02 5.6 C 6.22 g/m*3 5.6 C 0 km/h
237 19-11-2011 23:16:01 4.9 C 5.94 g/m*3 4.9 C 0 km/h
238 19-11-2011 23:28:01 4.2 C 5.67 g/m*3 4.2 C 0 km/h
239 19-11-2011 23:40:02 4.2 C 5.67 g/m*3 4.2 C 0 km/h
240 19-11-2011 23:52:01 4.3 C 5.77 g/m*3 4.3 C 0 km/h
241 20-11-2011 00:04:02 4.9 C 6.08 g/m*3 4.9 C 0 km/h
242 20-11-2011 00:16:01 5.1 C 6.09 g/m*3 5.1 C 0 km/h
243 20-11-2011 00:28:01 5.2 C 6.2 g/m*3 5.2 C 0 km/h
244 20-11-2011 00:40:01 5.2 C 6.2 g/m*3 5.2 C 0 km/h
245 20-11-2011 00:52:01 5.1 C 6.16 g/m*3 5.1 C 0 km/h
246 20-11-2011 01:04:01 5.2 C 6.2 g/m*3 5.2 C 0 km/h
247 20-11-2011 01:16:01 5.4 C 6.35 g/m*3 5.4 C 0 km/h
248 20-11-2011 01:28:01 5.4 C 6.35 g/m*3 5.4 C 0 km/h
249 20-11-2011 01:40:01 5.5 C 6.39 g/m*3 5.5 C 0 km/h
250 20-11-2011 01:52:01 5.5 C 6.39 g/m*3 5.5 C 0 km/h
Sensor: Nr:Datum:Temp:Abs-Feuchte:Windchill:Wind:
Aussen-T/F 251 20-11-2011 02:04:01 5.6 C 6.43 g/m*3 5.6 C 0 km/h
252 20-11-2011 02:16:02 5.7 C 6.48 g/m*3 5.7 C 0 km/h
253 20-11-2011 02:28:02 5.7 C 6.48 g/m*3 5.7 C 0 km/h
254 20-11-2011 02:40:01 5.7 C 6.4 g/m*3 5.7 C 0 km/h
255 20-11-2011 02:52:02 5.7 C 6.4 g/m*3 5.7 C 0 km/h
256 20-11-2011 03:04:02 5.7 C 6.4 g/m*3 5.7 C 0 km/h
257 20-11-2011 03:16:01 5.8 C 6.45 g/m*3 5.8 C 0 km/h
258 20-11-2011 03:28:01 5.8 C 6.45 g/m*3 5.8 C 0 km/h
259 20-11-2011 03:40:01 5.7 C 6.4 g/m*3 5.7 C 0 km/h
260 20-11-2011 03:52:01 5.7 C 6.4 g/m*3 5.7 C 0 km/h
261 20-11-2011 04:04:01 5.6 C 6.36 g/m*3 5.6 C 0 km/h
262 20-11-2011 04:16:02 5.4 C 6.21 g/m*3 5.4 C 0 km/h
263 20-11-2011 04:28:02 5.4 C 6.21 g/m*3 5.4 C 0 km/h
264 20-11-2011 04:40:01 5.5 C 6.25 g/m*3 5.5 C 0 km/h
265 20-11-2011 04:52:02 5.6 C 6.36 g/m*3 5.6 C 0 km/h
266 20-11-2011 05:04:01 5.7 C 6.4 g/m*3 5.7 C 0 km/h
267 20-11-2011 05:16:02 5.8 C 6.45 g/m*3 5.8 C 0 km/h
268 20-11-2011 05:28:02 5.7 C 6.4 g/m*3 5.7 C 0 km/h
269 20-11-2011 05:40:01 5.7 C 6.4 g/m*3 5.7 C 0 km/h
270 20-11-2011 05:52:02 5.7 C 6.4 g/m*3 5.7 C 0 km/h
271 20-11-2011 06:04:01 5.6 C 6.36 g/m*3 5.6 C 0 km/h
272 20-11-2011 06:16:01 5.6 C 6.36 g/m*3 5.6 C 0 km/h
273 20-11-2011 06:28:01 5.7 C 6.4 g/m*3 5.7 C 0 km/h
274 20-11-2011 06:40:02 5.7 C 6.4 g/m*3 5.7 C 0 km/h
275 20-11-2011 06:52:01 5.7 C 6.33 g/m*3 5.7 C 0 km/h
Sensor: Nr:Datum:Temp:Abs-Feuchte:Windchill:Wind:
Aussen-T/F 276 20-11-2011 07:04:02 5.7 C 6.33 g/m*3 5.7 C 0 km/h
277 20-11-2011 07:16:01 5.7 C 6.33 g/m*3 5.7 C 0 km/h
278 20-11-2011 07:28:01 5.8 C 6.38 g/m*3 5.8 C 0 km/h
279 20-11-2011 07:40:02 5.8 C 6.38 g/m*3 5.8 C 0 km/h
280 20-11-2011 07:52:01 5.8 C 6.38 g/m*3 5.8 C 0 km/h
281 20-11-2011 08:04:02 5.8 C 6.38 g/m*3 5.8 C 0 km/h
282 20-11-2011 08:16:01 5.9 C 6.42 g/m*3 5.9 C 0 km/h
283 20-11-2011 08:28:01 6.1 C 6.43 g/m*3 6.1 C 0 km/h
284 20-11-2011 08:40:01 6.3 C 6.51 g/m*3 6.3 C 0 km/h
285 20-11-2011 08:52:01 6.5 C 6.6 g/m*3 6.5 C 0 km/h
286 20-11-2011 09:04:01 6.7 C 6.61 g/m*3 6.7 C 0 km/h
287 20-11-2011 09:16:02 6.9 C 6.62 g/m*3 6.9 C 0 km/h
288 20-11-2011 09:28:02 7.4 C 6.68 g/m*3 7.4 C 0 km/h
289 20-11-2011 09:40:01 7.7 C 6.65 g/m*3 7.7 C 0 km/h
290 20-11-2011 09:52:02 8 C 6.45 g/m*3 8 C 0 km/h
291 20-11-2011 10:04:01 8.3 C 6.07 g/m*3 8.3 C 0 km/h
292 20-11-2011 10:16:02 8.5 C 6.06 g/m*3 8.5 C 0 km/h
293 20-11-2011 10:28:02 8.5 C 5.98 g/m*3 8.5 C 0 km/h
294 20-11-2011 10:40:01 8.7 C 6.05 g/m*3 8.7 C 0 km/h
295 20-11-2011 10:52:02 9.1 C 5.86 g/m*3 9.1 C 0 km/h
296 20-11-2011 11:04:01 9.5 C 5.92 g/m*3 9.5 C 0 km/h
297 20-11-2011 11:16:01 9.8 C 5.85 g/m*3 9.8 C 0 km/h
298 20-11-2011 11:28:01 9.8 C 5.66 g/m*3 9.8 C 0 km/h
299 20-11-2011 11:40:02 9.8 C 5.66 g/m*3 9.8 C 0 km/h
300 20-11-2011 11:52:01 10 C 5.45 g/m*3 10 C 0 km/h
Sensor: Nr:Datum:Temp:Abs-Feuchte:Windchill:Wind:
Aussen-T/F 301 20-11-2011 12:04:02 10.4 C 5.49 g/m*3 10.4 C 0 km/h
302 20-11-2011 12:16:01 11 C 5.41 g/m*3 11 C 0 km/h
303 20-11-2011 12:28:01 11.7 C 5.65 g/m*3 11.7 C 0 km/h
304 20-11-2011 12:40:02 11.7 C 5.44 g/m*3 11.7 C 0 km/h
305 20-11-2011 12:52:01 11.4 C 5.34 g/m*3 11.4 C 0 km/h
306 20-11-2011 13:04:02 11 C 5.41 g/m*3 11 C 0 km/h
307 20-11-2011 13:16:01 11.4 C 5.54 g/m*3 11.4 C 0 km/h
308 20-11-2011 13:28:01 11 C 5.41 g/m*3 11 C 0 km/h
309 20-11-2011 13:40:01 10.8 C 5.73 g/m*3 10.8 C 0 km/h
310 20-11-2011 13:52:01 11.2 C 6.08 g/m*3 11.2 C 0 km/h
311 20-11-2011 14:04:01 11.4 C 5.85 g/m*3 11.4 C 0 km/h
312 20-11-2011 14:16:02 11.5 C 5.68 g/m*3 11.5 C 0 km/h
313 20-11-2011 14:28:02 11.6 C 5.61 g/m*3 11.6 C 0 km/h
314 20-11-2011 14:40:01 11.7 C 5.75 g/m*3 11.7 C 0 km/h
315 20-11-2011 14:52:02 11.5 C 5.89 g/m*3 11.5 C 0 km/h
316 20-11-2011 15:04:01 11.3 C 5.92 g/m*3 11.3 C 0 km/h
317 20-11-2011 15:16:01 11.1 C 6.04 g/m*3 11.1 C 0 km/h
318 20-11-2011 15:28:02 11.1 C 6.25 g/m*3 11.1 C 0 km/h
319 20-11-2011 15:40:01 10.7 C 6.38 g/m*3 10.7 C 0 km/h
320 20-11-2011 15:52:02 10.4 C 6.26 g/m*3 10.4 C 0 km/h
321 20-11-2011 16:04:01 9.9 C 6.35 g/m*3 9.9 C 0 km/h
322 20-11-2011 16:16:01 9.3 C 6.38 g/m*3 9.3 C 0 km/h
323 20-11-2011 16:28:01 8.9 C 6.39 g/m*3 8.9 C 0 km/h
324 20-11-2011 16:40:02 8.4 C 6.28 g/m*3 8.4 C 0 km/h
325 20-11-2011 16:52:01 7.8 C 6.2 g/m*3 7.8 C 0 km/h
Sensor: Nr:Datum:Temp:Abs-Feuchte:Windchill:Wind:
Aussen-T/F 326 20-11-2011 17:04:02 7.2 C 6.04 g/m*3 7.2 C 0 km/h
327 20-11-2011 17:16:01 7 C 6.04 g/m*3 7 C 0 km/h
328 20-11-2011 17:28:01 6.7 C 6.08 g/m*3 6.7 C 0 km/h
329 20-11-2011 17:40:02 6.3 C 6 g/m*3 6.3 C 0 km/h
330 20-11-2011 17:52:02 6.3 C 6.07 g/m*3 6.3 C 0 km/h
331 20-11-2011 18:04:03 5.8 C 5.95 g/m*3 5.8 C 0 km/h
332 20-11-2011 18:16:02 5.5 C 5.9 g/m*3 5.5 C 0 km/h
333 20-11-2011 18:28:02 5.6 C 5.94 g/m*3 5.6 C 0 km/h
334 20-11-2011 18:40:01 5.5 C 5.97 g/m*3 5.5 C 0 km/h
335 20-11-2011 18:52:02 5 C 5.71 g/m*3 5 C 0 km/h
336 20-11-2011 19:04:01 5 C 5.78 g/m*3 5 C 0 km/h
337 20-11-2011 19:16:01 4.7 C 5.73 g/m*3 4.7 C 0 km/h
338 20-11-2011 19:28:02 4.6 C 5.76 g/m*3 4.6 C 0 km/h
339 20-11-2011 19:40:01 4.4 C 5.68 g/m*3 4.4 C 0 km/h
340 20-11-2011 19:52:02 4.5 C 5.72 g/m*3 4.5 C 0 km/h
341 20-11-2011 20:04:01 4.4 C 5.68 g/m*3 4.4 C 0 km/h
342 20-11-2011 20:16:01 4.2 C 5.61 g/m*3 4.2 C 0 km/h
343 20-11-2011 20:28:01 4.1 C 5.57 g/m*3 4.1 C 0 km/h
344 20-11-2011 20:40:02 4.1 C 5.63 g/m*3 4.1 C 0 km/h
345 20-11-2011 20:52:01 3.6 C 5.45 g/m*3 3.6 C 0 km/h
346 20-11-2011 21:04:02 3.6 C 5.45 g/m*3 3.6 C 0 km/h
347 20-11-2011 21:16:01 3.4 C 5.37 g/m*3 3.4 C 0 km/h
348 20-11-2011 21:28:01 3.5 C 5.47 g/m*3 3.5 C 0 km/h
349 20-11-2011 21:40:01 3.3 C 5.4 g/m*3 3.3 C 0 km/h
350 20-11-2011 21:52:01 2.9 C 5.32 g/m*3 2.9 C 0 km/h
Sensor: Nr:Datum:Temp:Abs-Feuchte:Windchill:Wind:
Aussen-T/F 351 20-11-2011 22:04:02 2.5 C 5.17 g/m*3 2.5 C 0 km/h
352 20-11-2011 22:16:01 2.6 C 5.21 g/m*3 2.6 C 0 km/h
353 20-11-2011 22:28:01 2.4 C 5.14 g/m*3 2.4 C 0 km/h
354 20-11-2011 22:41:01 2 C 5 g/m*3 2 C 0 km/h
355 20-11-2011 22:53:02 1.8 C 4.93 g/m*3 1.8 C 0 km/h
356 20-11-2011 23:05:02 1.7 C 4.9 g/m*3 1.7 C 0 km/h
357 20-11-2011 23:17:02 1.6 C 4.87 g/m*3 1.6 C 0 km/h
358 20-11-2011 23:29:02 1.4 C 4.8 g/m*3 1.4 C 0 km/h
359 20-11-2011 23:41:02 1.2 C 4.74 g/m*3 1.2 C 0 km/h
360 20-11-2011 23:53:02 1 C 4.67 g/m*3 1 C 0 km/h
361 21-11-2011 00:05:02 0.8 C 4.66 g/m*3 0.8 C 0 km/h
362 21-11-2011 00:17:02 0.7 C 4.63 g/m*3 0.7 C 0 km/h
363 21-11-2011 00:29:02 0.6 C 4.6 g/m*3 0.6 C 0 km/h
364 21-11-2011 00:41:02 0.5 C 4.56 g/m*3 0.5 C 0 km/h
365 21-11-2011 00:53:02 0.5 C 4.56 g/m*3 0.5 C 0 km/h
366 21-11-2011 01:05:02 0.5 C 4.56 g/m*3 0.5 C 0 km/h
367 21-11-2011 01:17:02 0.2 C 4.47 g/m*3 0.2 C 0 km/h
368 21-11-2011 01:29:02 0.1 C 4.44 g/m*3 0.1 C 0 km/h
369 21-11-2011 01:41:02 0 C 4.41 g/m*3 0 C 0 km/h
370 21-11-2011 01:53:02 -0.2 C 4.35 g/m*3 -0.2 C 0 km/h
371 21-11-2011 02:05:02 -0.4 C 4.29 g/m*3 -0.4 C 0 km/h
372 21-11-2011 02:17:02 -0.3 C 4.32 g/m*3 -0.3 C 0 km/h
373 21-11-2011 02:29:02 -0.5 C 4.26 g/m*3 -0.5 C 0 km/h
374 21-11-2011 02:41:02 -0.7 C 4.2 g/m*3 -0.7 C 0 km/h
375 21-11-2011 02:53:02 -0.3 C 4.32 g/m*3 -0.3 C 0 km/h
Sensor: Nr:Datum:Temp:Abs-Feuchte:Windchill:Wind:
Aussen-T/F 376 21-11-2011 03:05:02 -0.3 C 4.32 g/m*3 -0.3 C 0 km/h
377 21-11-2011 03:17:03 0.1 C 4.49 g/m*3 0.1 C 0 km/h
378 21-11-2011 03:29:03 0.4 C 4.58 g/m*3 0.4 C 0 km/h
379 21-11-2011 03:41:03 0.6 C 4.65 g/m*3 0.6 C 0 km/h
380 21-11-2011 03:53:03 0.8 C 4.76 g/m*3 0.8 C 0 km/h
381 21-11-2011 04:05:03 0.9 C 4.79 g/m*3 0.9 C 0 km/h
382 21-11-2011 04:17:03 0.5 C 4.66 g/m*3 0.5 C 0 km/h
383 21-11-2011 04:29:03 0.4 C 4.63 g/m*3 0.4 C 0 km/h
384 21-11-2011 04:41:03 0.5 C 4.66 g/m*3 0.5 C 0 km/h
385 21-11-2011 04:53:03 0.5 C 4.66 g/m*3 0.5 C 0 km/h
386 21-11-2011 05:05:03 0.5 C 4.66 g/m*3 0.5 C 0 km/h
387 21-11-2011 05:17:03 0.4 C 4.63 g/m*3 0.4 C 0 km/h
388 21-11-2011 05:29:03 0.4 C 4.63 g/m*3 0.4 C 0 km/h
389 21-11-2011 05:41:03 0.4 C 4.63 g/m*3 0.4 C 0 km/h
390 21-11-2011 05:53:03 0.5 C 4.66 g/m*3 0.5 C 0 km/h
391 21-11-2011 06:05:03 0.4 C 4.63 g/m*3 0.4 C 0 km/h
392 21-11-2011 06:17:03 0.3 C 4.65 g/m*3 0.3 C 0 km/h
393 21-11-2011 06:29:03 0.3 C 4.65 g/m*3 0.3 C 0 km/h
394 21-11-2011 06:41:03 0.2 C 4.62 g/m*3 0.2 C 0 km/h
395 21-11-2011 06:53:03 0.2 C 4.62 g/m*3 0.2 C 0 km/h
396 21-11-2011 07:05:03 0.2 C 4.62 g/m*3 0.2 C 0 km/h
397 21-11-2011 07:17:03 0.1 C 4.59 g/m*3 0.1 C 0 km/h
398 21-11-2011 07:29:04 0 C 4.55 g/m*3 0 C 0 km/h
399 21-11-2011 07:41:04 0 C 4.55 g/m*3 0 C 0 km/h
400 21-11-2011 07:53:02 0 C 4.55 g/m*3 0 C 0 km/h
Sensor: Nr:Datum:Temp:Abs-Feuchte:Windchill:Wind:
Aussen-T/F 401 21-11-2011 08:05:01 0 C 4.55 g/m*3 0 C 0 km/h
402 21-11-2011 08:17:01 0.1 C 4.59 g/m*3 0.1 C 0 km/h
403 21-11-2011 08:29:02 0.3 C 4.65 g/m*3 0.3 C 0 km/h
404 21-11-2011 08:41:01 0.4 C 4.68 g/m*3 0.4 C 0 km/h
405 21-11-2011 08:53:02 0.4 C 4.68 g/m*3 0.4 C 0 km/h
406 21-11-2011 09:05:01 0.4 C 4.68 g/m*3 0.4 C 0 km/h
407 21-11-2011 09:17:02 0.4 C 4.68 g/m*3 0.4 C 0 km/h
408 21-11-2011 09:29:02 0.5 C 4.71 g/m*3 0.5 C 0 km/h
409 21-11-2011 09:41:01 0.4 C 4.68 g/m*3 0.4 C 0 km/h
410 21-11-2011 09:53:02 0.6 C 4.75 g/m*3 0.6 C 0 km/h
411 21-11-2011 10:05:01 0.9 C 4.85 g/m*3 0.9 C 0 km/h
412 21-11-2011 10:17:02 1 C 4.88 g/m*3 1 C 0 km/h
413 21-11-2011 10:29:02 1.2 C 4.95 g/m*3 1.2 C 0 km/h
414 21-11-2011 10:41:01 1.7 C 5.12 g/m*3 1.7 C 0 km/h
415 21-11-2011 10:53:02 2 C 5.17 g/m*3 2 C 0 km/h
416 21-11-2011 11:05:01 2 C 5.17 g/m*3 2 C 0 km/h
417 21-11-2011 11:17:01 2.3 C 5.27 g/m*3 2.3 C 0 km/h
418 21-11-2011 11:29:01 2.6 C 5.38 g/m*3 2.6 C 0 km/h
419 21-11-2011 11:41:02 2.6 C 5.32 g/m*3 2.6 C 0 km/h
420 21-11-2011 11:53:01 2.8 C 5.4 g/m*3 2.8 C 0 km/h
421 21-11-2011 12:05:02 2.8 C 5.4 g/m*3 2.8 C 0 km/h
422 21-11-2011 12:17:01 2.7 C 5.3 g/m*3 2.7 C 0 km/h
423 21-11-2011 12:29:01 2.5 C 5.23 g/m*3 2.5 C 0 km/h
424 21-11-2011 12:41:02 2.4 C 5.2 g/m*3 2.4 C 0 km/h
425 21-11-2011 12:53:01 2.4 C 5.2 g/m*3 2.4 C 0 km/h
Sensor: Nr:Datum:Temp:Abs-Feuchte:Windchill:Wind:
Aussen-T/F 426 21-11-2011 13:05:02 3.1 C 5.45 g/m*3 3.1 C 0 km/h
427 21-11-2011 13:17:01 3.1 C 5.45 g/m*3 3.1 C 0 km/h
428 21-11-2011 13:29:01 3.3 C 5.52 g/m*3 3.3 C 0 km/h
429 21-11-2011 13:41:01 3.5 C 5.6 g/m*3 3.5 C 0 km/h
430 21-11-2011 13:53:01 3.8 C 5.77 g/m*3 3.8 C 0 km/h
431 21-11-2011 14:05:01 3.9 C 5.81 g/m*3 3.9 C 0 km/h
432 21-11-2011 14:17:02 4.1 C 5.82 g/m*3 4.1 C 0 km/h
433 21-11-2011 14:29:02 4.3 C 5.9 g/m*3 4.3 C 0 km/h
434 21-11-2011 14:41:01 4.5 C 5.98 g/m*3 4.5 C 0 km/h
435 21-11-2011 14:53:02 4.7 C 6.06 g/m*3 4.7 C 0 km/h
436 21-11-2011 15:05:01 4.8 C 6.1 g/m*3 4.8 C 0 km/h
437 21-11-2011 15:17:02 4.8 C 6.1 g/m*3 4.8 C 0 km/h
438 21-11-2011 15:29:02 4.8 C 6.1 g/m*3 4.8 C 0 km/h
439 21-11-2011 15:41:01 4.7 C 6.06 g/m*3 4.7 C 0 km/h
440 21-11-2011 15:53:02 4.9 C 6.14 g/m*3 4.9 C 0 km/h
441 21-11-2011 16:05:01 4.8 C 6.1 g/m*3 4.8 C 0 km/h
442 21-11-2011 16:17:01 4.7 C 6.06 g/m*3 4.7 C 0 km/h
443 21-11-2011 16:29:01 4.5 C 5.98 g/m*3 4.5 C 0 km/h
444 21-11-2011 16:41:02 4.4 C 5.94 g/m*3 4.4 C 0 km/h
445 21-11-2011 16:53:01 4.1 C 5.82 g/m*3 4.1 C 0 km/h
446 21-11-2011 17:05:02 3.9 C 5.81 g/m*3 3.9 C 0 km/h
447 21-11-2011 17:17:01 4 C 5.79 g/m*3 4 C 0 km/h
448 21-11-2011 17:29:01 4 C 5.79 g/m*3 4 C 0 km/h
449 21-11-2011 17:41:02 3.8 C 5.77 g/m*3 3.8 C 0 km/h
450 21-11-2011 17:53:01 3.6 C 5.69 g/m*3 3.6 C 0 km/h
Sensor: Nr:Datum:Temp:Abs-Feuchte:Windchill:Wind:
Aussen-T/F 451 21-11-2011 18:05:02 3.4 C 5.62 g/m*3 3.4 C 0 km/h
452 21-11-2011 18:17:01 3.2 C 5.54 g/m*3 3.2 C 0 km/h
453 21-11-2011 18:29:01 3.2 C 5.54 g/m*3 3.2 C 0 km/h
454 21-11-2011 18:41:01 2.5 C 5.29 g/m*3 2.5 C 0 km/h
455 21-11-2011 18:53:01 2 C 5.11 g/m*3 2 C 0 km/h
456 21-11-2011 19:05:01 2.2 C 5.18 g/m*3 2.2 C 0 km/h
457 21-11-2011 19:17:02 1.8 C 5.04 g/m*3 1.8 C 0 km/h
458 21-11-2011 19:29:02 1.6 C 4.97 g/m*3 1.6 C 0 km/h
459 21-11-2011 19:41:01 1.3 C 4.87 g/m*3 1.3 C 0 km/h
460 21-11-2011 19:53:02 1.1 C 4.81 g/m*3 1.1 C 0 km/h
461 21-11-2011 20:05:01 1 C 4.78 g/m*3 1 C 0 km/h
462 21-11-2011 20:17:02 0.7 C 4.73 g/m*3 0.7 C 0 km/h
463 21-11-2011 20:29:02 0.5 C 4.66 g/m*3 0.5 C 0 km/h
464 21-11-2011 20:41:01 0.5 C 4.66 g/m*3 0.5 C 0 km/h
465 21-11-2011 20:53:02 0.3 C 4.55 g/m*3 0.3 C 0 km/h
466 21-11-2011 21:05:01 0.1 C 4.49 g/m*3 0.1 C 0 km/h
467 21-11-2011 21:17:01 0.1 C 4.49 g/m*3 0.1 C 0 km/h
468 21-11-2011 21:29:01 0 C 4.46 g/m*3 0 C 0 km/h
469 21-11-2011 21:41:02 0 C 4.46 g/m*3 0 C 0 km/h
470 21-11-2011 21:53:01 -0.3 C 4.37 g/m*3 -0.3 C 0 km/h
471 21-11-2011 22:05:02 -0.4 C 4.34 g/m*3 -0.4 C 0 km/h
472 21-11-2011 22:18:02 -0.3 C 4.37 g/m*3 -0.3 C 0 km/h
473 21-11-2011 22:30:02 -0.5 C 4.31 g/m*3 -0.5 C 0 km/h
474 21-11-2011 22:42:02 -0.7 C 4.25 g/m*3 -0.7 C 0 km/h
475 21-11-2011 22:54:02 -0.5 C 4.31 g/m*3 -0.5 C 0 km/h
Sensor: Nr:Datum:Temp:Abs-Feuchte:Windchill:Wind:
Aussen-T/F 476 21-11-2011 23:06:02 -0.6 C 4.28 g/m*3 -0.6 C 0 km/h
477 21-11-2011 23:18:02 -0.9 C 4.19 g/m*3 -0.9 C 0 km/h
478 21-11-2011 23:30:02 -0.6 C 4.28 g/m*3 -0.6 C 0 km/h
479 21-11-2011 23:42:02 -0.5 C 4.35 g/m*3 -0.5 C 0 km/h
480 21-11-2011 23:54:02 -0.4 C 4.38 g/m*3 -0.4 C 0 km/h
481 22-11-2011 00:06:02 -0.6 C 4.28 g/m*3 -0.6 C 0 km/h
482 22-11-2011 00:18:02 -0.4 C 4.38 g/m*3 -0.4 C 0 km/h
483 22-11-2011 00:30:02 -0.2 C 4.44 g/m*3 -0.2 C 0 km/h
484 22-11-2011 00:42:03 -0.4 C 4.38 g/m*3 -0.4 C 0 km/h
485 22-11-2011 00:54:03 -0.4 C 4.38 g/m*3 -0.4 C 0 km/h
486 22-11-2011 01:06:03 -0.3 C 4.41 g/m*3 -0.3 C 0 km/h
487 22-11-2011 01:18:03 -0.1 C 4.47 g/m*3 -0.1 C 0 km/h
488 22-11-2011 01:30:03 0.1 C 4.54 g/m*3 0.1 C 0 km/h
489 22-11-2011 01:42:03 0.2 C 4.62 g/m*3 0.2 C 0 km/h
490 22-11-2011 01:54:03 0.2 C 4.62 g/m*3 0.2 C 0 km/h
491 22-11-2011 02:06:03 0.1 C 4.59 g/m*3 0.1 C 0 km/h
492 22-11-2011 02:18:03 0 C 4.55 g/m*3 0 C 0 km/h
493 22-11-2011 02:30:03 0 C 4.55 g/m*3 0 C 0 km/h
494 22-11-2011 02:42:03 0.1 C 4.59 g/m*3 0.1 C 0 km/h
495 22-11-2011 02:54:03 -0.1 C 4.52 g/m*3 -0.1 C 0 km/h
496 22-11-2011 03:06:03 -0.3 C 4.46 g/m*3 -0.3 C 0 km/h
497 22-11-2011 03:18:03 -0.3 C 4.46 g/m*3 -0.3 C 0 km/h
498 22-11-2011 03:30:03 -0.4 C 4.43 g/m*3 -0.4 C 0 km/h
499 22-11-2011 03:42:03 -0.5 C 4.4 g/m*3 -0.5 C 0 km/h
500 22-11-2011 03:54:03 -0.5 C 4.4 g/m*3 -0.5 C 0 km/h
Sensor: Nr:Datum:Temp:Abs-Feuchte:Windchill:Wind:
Aussen-T/F 501 22-11-2011 04:06:03 -0.4 C 4.43 g/m*3 -0.4 C 0 km/h
502 22-11-2011 04:18:03 -0.4 C 4.43 g/m*3 -0.4 C 0 km/h
503 22-11-2011 04:30:03 -0.4 C 4.43 g/m*3 -0.4 C 0 km/h
504 22-11-2011 04:42:03 -0.4 C 4.43 g/m*3 -0.4 C 0 km/h
505 22-11-2011 04:54:03 -0.3 C 4.46 g/m*3 -0.3 C 0 km/h
506 22-11-2011 05:06:04 -0.3 C 4.46 g/m*3 -0.3 C 0 km/h
507 22-11-2011 05:18:04 -0.3 C 4.46 g/m*3 -0.3 C 0 km/h
508 22-11-2011 05:30:04 -0.4 C 4.43 g/m*3 -0.4 C 0 km/h
509 22-11-2011 05:42:04 -0.3 C 4.46 g/m*3 -0.3 C 0 km/h
510 22-11-2011 05:54:04 -0.4 C 4.43 g/m*3 -0.4 C 0 km/h
511 22-11-2011 06:06:04 -0.4 C 4.43 g/m*3 -0.4 C 0 km/h
512 22-11-2011 06:18:04 -0.5 C 4.4 g/m*3 -0.5 C 0 km/h
513 22-11-2011 06:30:04 -0.5 C 4.4 g/m*3 -0.5 C 0 km/h
514 22-11-2011 06:42:04 -0.5 C 4.4 g/m*3 -0.5 C 0 km/h
515 22-11-2011 06:54:04 -0.6 C 4.37 g/m*3 -0.6 C 0 km/h
516 22-11-2011 07:06:04 -0.5 C 4.4 g/m*3 -0.5 C 0 km/h
517 22-11-2011 07:18:04 -0.5 C 4.4 g/m*3 -0.5 C 0 km/h
518 22-11-2011 07:30:04 -0.5 C 4.4 g/m*3 -0.5 C 0 km/h
519 22-11-2011 07:42:02 -0.5 C 4.4 g/m*3 -0.5 C 0 km/h
520 22-11-2011 07:54:01 -0.5 C 4.4 g/m*3 -0.5 C 0 km/h
521 22-11-2011 08:06:01 -0.6 C 4.37 g/m*3 -0.6 C 0 km/h
522 22-11-2011 08:18:02 -0.5 C 4.4 g/m*3 -0.5 C 0 km/h
523 22-11-2011 08:30:02 -0.6 C 4.37 g/m*3 -0.6 C 0 km/h
524 22-11-2011 08:42:01 -0.6 C 4.37 g/m*3 -0.6 C 0 km/h
525 22-11-2011 08:54:02 -0.6 C 4.37 g/m*3 -0.6 C 0 km/h
Sensor: Nr:Datum:Temp:Abs-Feuchte:Windchill:Wind:
Aussen-T/F 526 22-11-2011 09:06:01 -0.6 C 4.37 g/m*3 -0.6 C 0 km/h
527 22-11-2011 09:18:01 -0.3 C 4.51 g/m*3 -0.3 C 0 km/h
528 22-11-2011 09:30:02 0 C 4.6 g/m*3 0 C 0 km/h
529 22-11-2011 09:42:01 0.1 C 4.63 g/m*3 0.1 C 0 km/h
530 22-11-2011 09:54:02 0.1 C 4.63 g/m*3 0.1 C 0 km/h
531 22-11-2011 10:06:01 0.2 C 4.67 g/m*3 0.2 C 0 km/h
532 22-11-2011 10:18:01 0.3 C 4.7 g/m*3 0.3 C 0 km/h
533 22-11-2011 10:30:01 0.5 C 4.76 g/m*3 0.5 C 0 km/h
534 22-11-2011 10:42:02 1.1 C 4.91 g/m*3 1.1 C 0 km/h
535 22-11-2011 10:54:01 0.8 C 4.81 g/m*3 0.8 C 0 km/h
536 22-11-2011 11:06:02 1.3 C 4.98 g/m*3 1.3 C 0 km/h
537 22-11-2011 11:18:01 1.2 C 4.95 g/m*3 1.2 C 0 km/h
538 22-11-2011 11:30:01 1.8 C 5.15 g/m*3 1.8 C 0 km/h
539 22-11-2011 11:42:02 1.5 C 4.99 g/m*3 1.5 C 0 km/h
540 22-11-2011 11:54:01 1.8 C 5.1 g/m*3 1.8 C 0 km/h
541 22-11-2011 12:06:02 2.3 C 5.27 g/m*3 2.3 C 0 km/h
542 22-11-2011 12:18:01 2.1 C 5.15 g/m*3 2.1 C 0 km/h
543 22-11-2011 12:30:01 2.6 C 5.32 g/m*3 2.6 C 0 km/h
544 22-11-2011 12:42:01 3 C 5.35 g/m*3 3 C 0 km/h
545 22-11-2011 12:54:01 3.2 C 5.36 g/m*3 3.2 C 0 km/h
546 22-11-2011 13:06:01 3.1 C 5.27 g/m*3 3.1 C 0 km/h
547 22-11-2011 13:18:01 3.1 C 5.27 g/m*3 3.1 C 0 km/h
548 22-11-2011 13:30:01 3.5 C 5.41 g/m*3 3.5 C 0 km/h
549 22-11-2011 13:42:01 3.3 C 5.28 g/m*3 3.3 C 0 km/h
550 22-11-2011 13:54:01 2.8 C 5.1 g/m*3 2.8 C 0 km/h
Sensor: Nr:Datum:Temp:Abs-Feuchte:Windchill:Wind:
Aussen-T/F 551 22-11-2011 14:06:01 2.9 C 5.2 g/m*3 2.9 C 0 km/h
552 22-11-2011 14:18:02 3.1 C 5.27 g/m*3 3.1 C 0 km/h
553 22-11-2011 14:30:02 3.8 C 5.58 g/m*3 3.8 C 0 km/h
554 22-11-2011 14:42:01 4.3 C 5.77 g/m*3 4.3 C 0 km/h
555 22-11-2011 14:54:02 4.4 C 5.81 g/m*3 4.4 C 0 km/h
556 22-11-2011 15:06:01 4.4 C 5.75 g/m*3 4.4 C 0 km/h
557 22-11-2011 15:18:01 4.6 C 5.82 g/m*3 4.6 C 0 km/h
558 22-11-2011 15:30:02 4.7 C 5.93 g/m*3 4.7 C 0 km/h
559 22-11-2011 15:42:01 4.6 C 5.82 g/m*3 4.6 C 0 km/h
560 22-11-2011 15:54:02 4.2 C 5.67 g/m*3 4.2 C 0 km/h
561 22-11-2011 16:06:01 3.7 C 5.48 g/m*3 3.7 C 0 km/h
562 22-11-2011 16:18:01 3.2 C 5.3 g/m*3 3.2 C 0 km/h
563 22-11-2011 16:30:01 2.6 C 5.09 g/m*3 2.6 C 0 km/h
564 22-11-2011 16:42:02 2.2 C 4.96 g/m*3 2.2 C 0 km/h
565 22-11-2011 16:54:01 2 C 4.89 g/m*3 2 C 0 km/h
566 22-11-2011 17:06:02 1.7 C 4.85 g/m*3 1.7 C 0 km/h
567 22-11-2011 17:18:01 1.5 C 4.83 g/m*3 1.5 C 0 km/h
568 22-11-2011 17:30:01 1.6 C 4.87 g/m*3 1.6 C 0 km/h
569 22-11-2011 17:42:02 1.8 C 4.93 g/m*3 1.8 C 0 km/h
570 22-11-2011 17:54:01 1.9 C 5.02 g/m*3 1.9 C 0 km/h
571 22-11-2011 18:06:02 1.8 C 4.99 g/m*3 1.8 C 0 km/h
572 22-11-2011 18:18:01 1.7 C 4.95 g/m*3 1.7 C 0 km/h
573 22-11-2011 18:30:01 1.8 C 4.99 g/m*3 1.8 C 0 km/h
574 22-11-2011 18:42:02 1.9 C 5.02 g/m*3 1.9 C 0 km/h
575 22-11-2011 18:54:01 2.4 C 5.2 g/m*3 2.4 C 0 km/h
Sensor: Nr:Datum:Temp:Abs-Feuchte:Windchill:Wind:
Aussen-T/F 576 22-11-2011 19:06:01 2.5 C 5.23 g/m*3 2.5 C 0 km/h
577 22-11-2011 19:18:01 2.5 C 5.29 g/m*3 2.5 C 0 km/h
578 22-11-2011 19:30:01 2.5 C 5.29 g/m*3 2.5 C 0 km/h
579 22-11-2011 19:42:02 2.5 C 5.29 g/m*3 2.5 C 0 km/h
580 22-11-2011 19:54:01 2.6 C 5.32 g/m*3 2.6 C 0 km/h
581 22-11-2011 20:06:02 2.6 C 5.32 g/m*3 2.6 C 0 km/h
582 22-11-2011 20:18:01 2.4 C 5.25 g/m*3 2.4 C 0 km/h
583 22-11-2011 20:30:01 2.2 C 5.18 g/m*3 2.2 C 0 km/h
584 22-11-2011 20:42:01 2 C 5.11 g/m*3 2 C 0 km/h
585 22-11-2011 20:54:01 1.8 C 5.04 g/m*3 1.8 C 0 km/h
586 22-11-2011 21:06:01 1.8 C 5.04 g/m*3 1.8 C 0 km/h
587 22-11-2011 21:18:02 2 C 5.11 g/m*3 2 C 0 km/h
588 22-11-2011 21:30:02 2.1 C 5.15 g/m*3 2.1 C 0 km/h
589 22-11-2011 21:42:01 2.4 C 5.25 g/m*3 2.4 C 0 km/h
590 22-11-2011 21:54:01 2.3 C 5.22 g/m*3 2.3 C 0 km/h
591 22-11-2011 22:07:05 2.2 C 5.18 g/m*3 2.2 C 0 km/h
592 22-11-2011 22:19:05 1.6 C 5.03 g/m*3 1.6 C 0 km/h
593 22-11-2011 22:31:05 1 C 4.78 g/m*3 1 C 0 km/h
594 22-11-2011 22:43:05 0.6 C 4.65 g/m*3 0.6 C 0 km/h
595 22-11-2011 22:55:05 0.6 C 4.65 g/m*3 0.6 C 0 km/h
596 22-11-2011 23:07:05 0.4 C 4.58 g/m*3 0.4 C 0 km/h
597 22-11-2011 23:19:05 0.1 C 4.49 g/m*3 0.1 C 0 km/h
598 22-11-2011 23:31:05 0.1 C 4.49 g/m*3 0.1 C 0 km/h
599 22-11-2011 23:43:05 0 C 4.46 g/m*3 0 C 0 km/h
600 22-11-2011 23:55:05 -0.2 C 4.4 g/m*3 -0.2 C 0 km/h
Sensor: Nr:Datum:Temp:Abs-Feuchte:Windchill:Wind:
Aussen-T/F 601 23-11-2011 00:07:05 0.1 C 4.49 g/m*3 0.1 C 0 km/h
602 23-11-2011 00:19:05 -0.1 C 4.43 g/m*3 -0.1 C 0 km/h
603 23-11-2011 00:31:05 -0.3 C 4.37 g/m*3 -0.3 C 0 km/h
604 23-11-2011 00:43:06 -0.5 C 4.31 g/m*3 -0.5 C 0 km/h
605 23-11-2011 00:55:06 -0.2 C 4.4 g/m*3 -0.2 C 0 km/h
606 23-11-2011 01:07:06 -0.1 C 4.43 g/m*3 -0.1 C 0 km/h
607 23-11-2011 01:19:06 0.4 C 4.63 g/m*3 0.4 C 0 km/h
608 23-11-2011 01:31:06 0.8 C 4.76 g/m*3 0.8 C 0 km/h
609 23-11-2011 01:43:06 1 C 4.83 g/m*3 1 C 0 km/h
610 23-11-2011 01:55:06 1.1 C 4.86 g/m*3 1.1 C 0 km/h
611 23-11-2011 02:07:06 0.8 C 4.76 g/m*3 0.8 C 0 km/h
612 23-11-2011 02:19:06 0.9 C 4.85 g/m*3 0.9 C 0 km/h
613 23-11-2011 02:31:06 1 C 4.83 g/m*3 1 C 0 km/h
614 23-11-2011 02:43:06 1.1 C 4.86 g/m*3 1.1 C 0 km/h
615 23-11-2011 02:55:06 1.6 C 5.08 g/m*3 1.6 C 0 km/h
616 23-11-2011 03:07:06 1.2 C 4.95 g/m*3 1.2 C 0 km/h
617 23-11-2011 03:19:06 1.1 C 4.86 g/m*3 1.1 C 0 km/h
618 23-11-2011 03:31:06 1 C 4.88 g/m*3 1 C 0 km/h
619 23-11-2011 03:43:06 0.9 C 4.85 g/m*3 0.9 C 0 km/h
620 23-11-2011 03:55:06 0.9 C 4.85 g/m*3 0.9 C 0 km/h
621 23-11-2011 04:07:06 0.9 C 4.85 g/m*3 0.9 C 0 km/h
622 23-11-2011 04:19:06 1 C 4.88 g/m*3 1 C 0 km/h
623 23-11-2011 04:31:06 1 C 4.88 g/m*3 1 C 0 km/h
624 23-11-2011 04:43:06 1 C 4.88 g/m*3 1 C 0 km/h
625 23-11-2011 04:55:07 0.9 C 4.85 g/m*3 0.9 C 0 km/h
Sensor: Nr:Datum:Temp:Abs-Feuchte:Windchill:Wind:
Aussen-T/F 626 23-11-2011 05:07:07 0.8 C 4.81 g/m*3 0.8 C 0 km/h
627 23-11-2011 05:19:07 0.8 C 4.81 g/m*3 0.8 C 0 km/h
628 23-11-2011 05:31:07 0.7 C 4.78 g/m*3 0.7 C 0 km/h
629 23-11-2011 05:43:07 0.8 C 4.81 g/m*3 0.8 C 0 km/h
630 23-11-2011 05:55:07 0.9 C 4.85 g/m*3 0.9 C 0 km/h
631 23-11-2011 06:07:07 0.8 C 4.86 g/m*3 0.8 C 0 km/h
632 23-11-2011 06:19:07 0.6 C 4.75 g/m*3 0.6 C 0 km/h
633 23-11-2011 06:31:07 0.6 C 4.75 g/m*3 0.6 C 0 km/h
634 23-11-2011 06:43:07 0.8 C 4.86 g/m*3 0.8 C 0 km/h
635 23-11-2011 06:55:07 0.9 C 4.9 g/m*3 0.9 C 0 km/h
636 23-11-2011 07:07:07 0.8 C 4.86 g/m*3 0.8 C 0 km/h
637 23-11-2011 07:19:07 0.6 C 4.8 g/m*3 0.6 C 0 km/h
638 23-11-2011 07:31:04 0.5 C 4.71 g/m*3 0.5 C 0 km/h
639 23-11-2011 07:43:05 0.7 C 4.83 g/m*3 0.7 C 0 km/h
640 23-11-2011 07:55:02 0.8 C 4.86 g/m*3 0.8 C 0 km/h
641 23-11-2011 08:07:02 1 C 4.88 g/m*3 1 C 0 km/h
642 23-11-2011 08:19:02 1.2 C 4.95 g/m*3 1.2 C 0 km/h
643 23-11-2011 08:31:02 1.1 C 4.91 g/m*3 1.1 C 0 km/h
644 23-11-2011 08:43:02 1.3 C 4.98 g/m*3 1.3 C 0 km/h
645 23-11-2011 08:55:02 1.4 C 5.01 g/m*3 1.4 C 0 km/h
646 23-11-2011 09:07:01 1.4 C 5.07 g/m*3 1.4 C 0 km/h
647 23-11-2011 09:19:02 1.5 C 5.1 g/m*3 1.5 C 0 km/h
648 23-11-2011 09:31:02 1.4 C 5.07 g/m*3 1.4 C 0 km/h
649 23-11-2011 09:43:02 1.4 C 5.07 g/m*3 1.4 C 0 km/h
650 23-11-2011 09:55:02 1.3 C 5.03 g/m*3 1.3 C 0 km/h
Sensor: Nr:Datum:Temp:Abs-Feuchte:Windchill:Wind:
Aussen-T/F 651 23-11-2011 10:07:01 1.5 C 5.1 g/m*3 1.5 C 0 km/h
652 23-11-2011 10:19:01 1.5 C 5.1 g/m*3 1.5 C 0 km/h
653 23-11-2011 10:31:02 1.8 C 5.21 g/m*3 1.8 C 0 km/h
654 23-11-2011 10:43:02 2.2 C 5.29 g/m*3 2.2 C 0 km/h
655 23-11-2011 10:55:02 1.9 C 5.24 g/m*3 1.9 C 0 km/h
656 23-11-2011 11:07:02 2.2 C 5.29 g/m*3 2.2 C 0 km/h
657 23-11-2011 11:19:02 2.2 C 5.29 g/m*3 2.2 C 0 km/h
658 23-11-2011 11:31:02 2.7 C 5.48 g/m*3 2.7 C 0 km/h
659 23-11-2011 11:43:03 2.8 C 5.51 g/m*3 2.8 C 0 km/h
660 23-11-2011 11:55:02 3 C 5.53 g/m*3 3 C 0 km/h
661 23-11-2011 12:07:02 3.3 C 5.64 g/m*3 3.3 C 0 km/h
662 23-11-2011 12:19:02 3.3 C 5.64 g/m*3 3.3 C 0 km/h
663 23-11-2011 12:31:02 3.2 C 5.54 g/m*3 3.2 C 0 km/h
664 23-11-2011 12:43:02 3.4 C 5.62 g/m*3 3.4 C 0 km/h
665 23-11-2011 12:55:02 3.8 C 5.77 g/m*3 3.8 C 0 km/h
666 23-11-2011 13:07:02 3.7 C 5.61 g/m*3 3.7 C 0 km/h
667 23-11-2011 13:19:03 3.8 C 5.65 g/m*3 3.8 C 0 km/h
668 23-11-2011 13:31:02 3.7 C 5.55 g/m*3 3.7 C 0 km/h
669 23-11-2011 13:43:02 4 C 5.66 g/m*3 4 C 0 km/h
670 23-11-2011 13:55:03 4.1 C 5.7 g/m*3 4.1 C 0 km/h
671 23-11-2011 14:07:02 3.9 C 5.62 g/m*3 3.9 C 0 km/h
672 23-11-2011 14:19:02 3.9 C 5.56 g/m*3 3.9 C 0 km/h
673 23-11-2011 14:31:02 4 C 5.59 g/m*3 4 C 0 km/h
674 23-11-2011 14:43:02 3.6 C 5.45 g/m*3 3.6 C 0 km/h
675 23-11-2011 14:55:02 3 C 5.23 g/m*3 3 C 0 km/h
Sensor: Nr:Datum:Temp:Abs-Feuchte:Windchill:Wind:
Aussen-T/F 676 23-11-2011 15:07:02 3 C 5.23 g/m*3 3 C 0 km/h
677 23-11-2011 15:19:02 3 C 5.29 g/m*3 3 C 0 km/h
678 23-11-2011 15:31:02 2.9 C 5.26 g/m*3 2.9 C 0 km/h
679 23-11-2011 15:43:02 2.7 C 5.24 g/m*3 2.7 C 0 km/h
680 23-11-2011 15:55:02 2.5 C 5.17 g/m*3 2.5 C 0 km/h
681 23-11-2011 16:07:01 2.4 C 5.14 g/m*3 2.4 C 0 km/h
682 23-11-2011 16:19:01 2.2 C 5.07 g/m*3 2.2 C 0 km/h
683 23-11-2011 16:31:02 1.6 C 4.92 g/m*3 1.6 C 0 km/h
684 23-11-2011 16:43:02 1.5 C 4.89 g/m*3 1.5 C 0 km/h
685 23-11-2011 16:55:02 1.9 C 5.02 g/m*3 1.9 C 0 km/h
686 23-11-2011 17:07:02 2.3 C 5.16 g/m*3 2.3 C 0 km/h
687 23-11-2011 17:19:02 2.3 C 5.22 g/m*3 2.3 C 0 km/h
688 23-11-2011 17:31:02 1.9 C 5.08 g/m*3 1.9 C 0 km/h
689 23-11-2011 17:43:02 1.8 C 5.04 g/m*3 1.8 C 0 km/h
690 23-11-2011 17:55:02 2 C 5.11 g/m*3 2 C 0 km/h
691 23-11-2011 18:07:02 2.1 C 5.15 g/m*3 2.1 C 0 km/h
692 23-11-2011 18:19:02 1.5 C 4.94 g/m*3 1.5 C 0 km/h
693 23-11-2011 18:31:02 1.2 C 4.84 g/m*3 1.2 C 0 km/h
694 23-11-2011 18:43:02 1.1 C 4.81 g/m*3 1.1 C 0 km/h
695 23-11-2011 18:55:02 1.7 C 5.06 g/m*3 1.7 C 0 km/h
696 23-11-2011 19:07:02 1.2 C 4.89 g/m*3 1.2 C 0 km/h
697 23-11-2011 19:19:02 1.6 C 5.03 g/m*3 1.6 C 0 km/h
698 23-11-2011 19:31:02 1.6 C 5.03 g/m*3 1.6 C 0 km/h
699 23-11-2011 19:43:02 1.7 C 5.06 g/m*3 1.7 C 0 km/h
700 23-11-2011 19:55:02 1.6 C 5.03 g/m*3 1.6 C 0 km/h
Sensor: Nr:Datum:Temp:Abs-Feuchte:Windchill:Wind:
Aussen-T/F 701 23-11-2011 20:07:02 1.6 C 5.03 g/m*3 1.6 C 0 km/h
702 23-11-2011 20:19:02 1.6 C 5.08 g/m*3 1.6 C 0 km/h
703 23-11-2011 20:31:02 1.4 C 4.96 g/m*3 1.4 C 0 km/h
704 23-11-2011 20:43:02 1.4 C 5.01 g/m*3 1.4 C 0 km/h
705 23-11-2011 20:55:02 1.3 C 4.93 g/m*3 1.3 C 0 km/h
706 23-11-2011 21:07:01 1.3 C 4.98 g/m*3 1.3 C 0 km/h
707 23-11-2011 21:19:01 1.4 C 5.01 g/m*3 1.4 C 0 km/h
708 23-11-2011 21:31:02 1.4 C 5.01 g/m*3 1.4 C 0 km/h
709 23-11-2011 21:43:02 1.2 C 4.95 g/m*3 1.2 C 0 km/h
710 23-11-2011 21:55:02 1.3 C 4.98 g/m*3 1.3 C 0 km/h
711 23-11-2011 22:07:02 1.4 C 5.01 g/m*3 1.4 C 0 km/h
712 23-11-2011 22:20:03 1 C 4.88 g/m*3 1 C 0 km/h
713 23-11-2011 22:32:03 1.2 C 4.95 g/m*3 1.2 C 0 km/h
714 23-11-2011 22:44:03 1.2 C 4.95 g/m*3 1.2 C 0 km/h
715 23-11-2011 22:56:03 1.1 C 4.91 g/m*3 1.1 C 0 km/h
716 23-11-2011 23:08:03 1 C 4.88 g/m*3 1 C 0 km/h
717 23-11-2011 23:20:03 0.7 C 4.78 g/m*3 0.7 C 0 km/h
718 23-11-2011 23:32:03 0.7 C 4.78 g/m*3 0.7 C 0 km/h
719 23-11-2011 23:44:03 0.8 C 4.81 g/m*3 0.8 C 0 km/h
720 23-11-2011 23:56:03 1.1 C 4.91 g/m*3 1.1 C 0 km/h
721 24-11-2011 00:08:03 0.9 C 4.85 g/m*3 0.9 C 0 km/h
722 24-11-2011 00:20:03 0.7 C 4.78 g/m*3 0.7 C 0 km/h
723 24-11-2011 00:32:03 0.6 C 4.75 g/m*3 0.6 C 0 km/h
724 24-11-2011 00:44:03 0.6 C 4.75 g/m*3 0.6 C 0 km/h
725 24-11-2011 00:56:03 0.8 C 4.81 g/m*3 0.8 C 0 km/h
Sensor: Nr:Datum:Temp:Abs-Feuchte:Windchill:Wind:
Aussen-T/F 726 24-11-2011 01:08:03 0.8 C 4.86 g/m*3 0.8 C 0 km/h
727 24-11-2011 01:20:04 0.6 C 4.75 g/m*3 0.6 C 0 km/h
728 24-11-2011 01:32:04 0.5 C 4.71 g/m*3 0.5 C 0 km/h
729 24-11-2011 01:44:04 0.1 C 4.59 g/m*3 0.1 C 0 km/h
730 24-11-2011 01:56:04 0 C 4.55 g/m*3 0 C 0 km/h
731 24-11-2011 02:08:04 0.5 C 4.71 g/m*3 0.5 C 0 km/h
732 24-11-2011 02:20:04 0.7 C 4.83 g/m*3 0.7 C 0 km/h
733 24-11-2011 02:32:04 0.8 C 4.86 g/m*3 0.8 C 0 km/h
734 24-11-2011 02:44:04 1 C 4.88 g/m*3 1 C 0 km/h
735 24-11-2011 02:56:04 1.1 C 4.91 g/m*3 1.1 C 0 km/h
736 24-11-2011 03:08:04 1.1 C 4.91 g/m*3 1.1 C 0 km/h
737 24-11-2011 03:20:04 1.5 C 5.05 g/m*3 1.5 C 0 km/h
738 24-11-2011 03:32:04 1.5 C 5.1 g/m*3 1.5 C 0 km/h
739 24-11-2011 03:44:04 1.6 C 5.14 g/m*3 1.6 C 0 km/h
740 24-11-2011 03:56:04 1.7 C 5.17 g/m*3 1.7 C 0 km/h
741 24-11-2011 04:08:04 1.8 C 5.21 g/m*3 1.8 C 0 km/h
742 24-11-2011 04:20:04 1.9 C 5.24 g/m*3 1.9 C 0 km/h
743 24-11-2011 04:32:04 2.1 C 5.26 g/m*3 2.1 C 0 km/h
744 24-11-2011 04:44:04 2 C 5.22 g/m*3 2 C 0 km/h
745 24-11-2011 04:56:04 2.1 C 5.26 g/m*3 2.1 C 0 km/h
746 24-11-2011 05:08:04 2.2 C 5.29 g/m*3 2.2 C 0 km/h
747 24-11-2011 05:20:05 2.2 C 5.29 g/m*3 2.2 C 0 km/h
748 24-11-2011 05:32:05 2.2 C 5.29 g/m*3 2.2 C 0 km/h
749 24-11-2011 05:44:05 2.2 C 5.29 g/m*3 2.2 C 0 km/h
750 24-11-2011 05:56:05 2.3 C 5.33 g/m*3 2.3 C 0 km/h
Sensor: Nr:Datum:Temp:Abs-Feuchte:Windchill:Wind:
Aussen-T/F 751 24-11-2011 06:08:05 2.5 C 5.46 g/m*3 2.5 C 0 km/h
752 24-11-2011 06:20:05 2.6 C 5.5 g/m*3 2.6 C 0 km/h
753 24-11-2011 06:32:05 2.6 C 5.5 g/m*3 2.6 C 0 km/h
754 24-11-2011 06:44:05 2.7 C 5.54 g/m*3 2.7 C 0 km/h
755 24-11-2011 06:56:05 2.7 C 5.54 g/m*3 2.7 C 0 km/h
756 24-11-2011 07:08:02 2.8 C 5.57 g/m*3 2.8 C 0 km/h
757 24-11-2011 07:20:03 2.8 C 5.57 g/m*3 2.8 C 0 km/h
758 24-11-2011 07:32:02 2.9 C 5.61 g/m*3 2.9 C 0 km/h
759 24-11-2011 07:44:02 2.9 C 5.61 g/m*3 2.9 C 0 km/h
760 24-11-2011 07:56:02 3 C 5.59 g/m*3 3 C 0 km/h
761 24-11-2011 08:08:02 3.1 C 5.63 g/m*3 3.1 C 0 km/h
762 24-11-2011 08:20:02 3.1 C 5.63 g/m*3 3.1 C 0 km/h
763 24-11-2011 08:32:02 3.2 C 5.66 g/m*3 3.2 C 0 km/h
764 24-11-2011 08:44:02 3.3 C 5.7 g/m*3 3.3 C 0 km/h
765 24-11-2011 08:56:01 3.4 C 5.74 g/m*3 3.4 C 0 km/h
766 24-11-2011 09:08:02 3.5 C 5.78 g/m*3 3.5 C 0 km/h
767 24-11-2011 09:20:01 3.7 C 5.92 g/m*3 3.7 C 0 km/h
768 24-11-2011 09:32:01 3.8 C 5.96 g/m*3 3.8 C 0 km/h
769 24-11-2011 09:44:01 3.9 C 6 g/m*3 3.9 C 0 km/h
770 24-11-2011 09:56:01 4 C 5.98 g/m*3 4 C 0 km/h
771 24-11-2011 10:08:02 4.1 C 6.02 g/m*3 4.1 C 0 km/h
772 24-11-2011 10:20:01 4.3 C 6.1 g/m*3 4.3 C 0 km/h
773 24-11-2011 10:32:01 4.4 C 6.14 g/m*3 4.4 C 0 km/h
774 24-11-2011 10:44:01 4.6 C 6.22 g/m*3 4.6 C 0 km/h
775 24-11-2011 10:56:01 4.6 C 6.22 g/m*3 4.6 C 0 km/h
Sensor: Nr:Datum:Temp:Abs-Feuchte:Windchill:Wind:
Aussen-T/F 776 24-11-2011 11:08:02 4.4 C 6.07 g/m*3 4.4 C 0 km/h
777 24-11-2011 11:20:02 4.4 C 6.07 g/m*3 4.4 C 0 km/h
778 24-11-2011 11:32:01 4.9 C 6.28 g/m*3 4.9 C 0 km/h
779 24-11-2011 11:44:01 4.9 C 6.28 g/m*3 4.9 C 0 km/h
780 24-11-2011 11:56:02 4.8 C 6.17 g/m*3 4.8 C 0 km/h
781 24-11-2011 12:08:01 5 C 6.18 g/m*3 5 C 0 km/h
782 24-11-2011 12:20:02 5 C 6.12 g/m*3 5 C 0 km/h
783 24-11-2011 12:32:01 5 C 6.05 g/m*3 5 C 0 km/h
784 24-11-2011 12:44:01 5.3 C 6.17 g/m*3 5.3 C 0 km/h
785 24-11-2011 12:56:02 5.3 C 6.1 g/m*3 5.3 C 0 km/h
786 24-11-2011 13:08:02 5 C 5.98 g/m*3 5 C 0 km/h
787 24-11-2011 13:20:02 5.3 C 6.1 g/m*3 5.3 C 0 km/h
788 24-11-2011 13:32:02 5.4 C 6.07 g/m*3 5.4 C 0 km/h
789 24-11-2011 13:44:02 5.5 C 6.11 g/m*3 5.5 C 0 km/h
790 24-11-2011 13:56:02 5.6 C 6.15 g/m*3 5.6 C 0 km/h
791 24-11-2011 14:08:02 5.9 C 6.2 g/m*3 5.9 C 0 km/h
792 24-11-2011 14:20:01 5.9 C 6.13 g/m*3 5.9 C 0 km/h
793 24-11-2011 14:32:02 5.9 C 6.2 g/m*3 5.9 C 0 km/h
794 24-11-2011 14:44:02 5.9 C 6.2 g/m*3 5.9 C 0 km/h
795 24-11-2011 14:56:02 5.9 C 6.2 g/m*3 5.9 C 0 km/h
796 24-11-2011 15:08:02 5.6 C 6.08 g/m*3 5.6 C 0 km/h
797 24-11-2011 15:20:01 5.5 C 6.11 g/m*3 5.5 C 0 km/h
798 24-11-2011 15:32:02 5.2 C 5.99 g/m*3 5.2 C 0 km/h
799 24-11-2011 15:44:02 4.8 C 5.9 g/m*3 4.8 C 0 km/h
800 24-11-2011 15:56:02 4.4 C 5.75 g/m*3 4.4 C 0 km/h
Sensor: Nr:Datum:Temp:Abs-Feuchte:Windchill:Wind:
Aussen-T/F 801 24-11-2011 16:08:02 4.2 C 5.67 g/m*3 4.2 C 0 km/h
802 24-11-2011 16:20:01 3.9 C 5.62 g/m*3 3.9 C 0 km/h
803 24-11-2011 16:32:02 3.5 C 5.47 g/m*3 3.5 C 0 km/h
804 24-11-2011 16:44:02 3.3 C 5.4 g/m*3 3.3 C 0 km/h
805 24-11-2011 16:56:01 3.2 C 5.36 g/m*3 3.2 C 0 km/h
806 24-11-2011 17:08:02 3 C 5.35 g/m*3 3 C 0 km/h
807 24-11-2011 17:20:02 2.8 C 5.34 g/m*3 2.8 C 0 km/h
808 24-11-2011 17:32:01 2.6 C 5.27 g/m*3 2.6 C 0 km/h
809 24-11-2011 17:44:01 2.7 C 5.3 g/m*3 2.7 C 0 km/h
810 24-11-2011 17:56:02 2.4 C 5.2 g/m*3 2.4 C 0 km/h
811 24-11-2011 18:08:01 2.3 C 5.16 g/m*3 2.3 C 0 km/h
812 24-11-2011 18:20:02 2.4 C 5.25 g/m*3 2.4 C 0 km/h
813 24-11-2011 18:32:01 1.9 C 5.08 g/m*3 1.9 C 0 km/h
814 24-11-2011 18:44:01 1.5 C 4.94 g/m*3 1.5 C 0 km/h
815 24-11-2011 18:56:02 1.3 C 4.87 g/m*3 1.3 C 0 km/h
816 24-11-2011 19:08:02 1.1 C 4.81 g/m*3 1.1 C 0 km/h
817 24-11-2011 19:20:02 1.1 C 4.81 g/m*3 1.1 C 0 km/h
818 24-11-2011 19:32:02 1.1 C 4.81 g/m*3 1.1 C 0 km/h
819 24-11-2011 19:44:02 0.8 C 4.71 g/m*3 0.8 C 0 km/h
820 24-11-2011 19:56:02 0.6 C 4.65 g/m*3 0.6 C 0 km/h
821 24-11-2011 20:08:02 0.3 C 4.55 g/m*3 0.3 C 0 km/h
822 24-11-2011 20:20:01 0.3 C 4.55 g/m*3 0.3 C 0 km/h
823 24-11-2011 20:32:02 0.3 C 4.55 g/m*3 0.3 C 0 km/h
824 24-11-2011 20:44:03 -0.2 C 4.4 g/m*3 -0.2 C 0 km/h
825 24-11-2011 20:56:02 -0.2 C 4.4 g/m*3 -0.2 C 0 km/h
Sensor: Nr:Datum:Temp:Abs-Feuchte:Windchill:Wind:
Aussen-T/F 826 24-11-2011 21:08:02 0 C 4.46 g/m*3 0 C 0 km/h
827 24-11-2011 21:20:01 -0.5 C 4.26 g/m*3 -0.5 C 0 km/h
828 24-11-2011 21:32:02 -0.4 C 4.29 g/m*3 -0.4 C 0 km/h
829 24-11-2011 21:44:02 -0.9 C 4.14 g/m*3 -0.9 C 0 km/h
830 24-11-2011 21:56:02 -1 C 4.11 g/m*3 -1 C 0 km/h
831 24-11-2011 22:08:02 -1.1 C 4.13 g/m*3 -1.1 C 0 km/h
832 24-11-2011 22:21:02 -1.2 C 4.1 g/m*3 -1.2 C 0 km/h
833 24-11-2011 22:33:02 -0.8 C 4.22 g/m*3 -0.8 C 0 km/h
834 24-11-2011 22:45:02 -1.4 C 4.04 g/m*3 -1.4 C 0 km/h
835 24-11-2011 22:57:03 -1.1 C 4.13 g/m*3 -1.1 C 0 km/h
836 24-11-2011 23:09:03 -1.1 C 4.13 g/m*3 -1.1 C 0 km/h
837 24-11-2011 23:21:03 -1.5 C 3.97 g/m*3 -1.5 C 0 km/h
838 24-11-2011 23:33:03 -1.4 C 4 g/m*3 -1.4 C 0 km/h
839 24-11-2011 23:45:03 -1.4 C 4.04 g/m*3 -1.4 C 0 km/h
840 24-11-2011 23:57:03 -1.3 C 4.07 g/m*3 -1.3 C 0 km/h
841 25-11-2011 00:09:03 -1.8 C 3.89 g/m*3 -1.8 C 0 km/h
842 25-11-2011 00:21:03 -1.8 C 3.89 g/m*3 -1.8 C 0 km/h
843 25-11-2011 00:33:03 -1.7 C 3.92 g/m*3 -1.7 C 0 km/h
844 25-11-2011 00:45:03 -1.8 C 3.89 g/m*3 -1.8 C 0 km/h
845 25-11-2011 00:57:03 -2 C 3.84 g/m*3 -2 C 0 km/h
846 25-11-2011 01:09:03 -2 C 3.84 g/m*3 -2 C 0 km/h
847 25-11-2011 01:21:03 -1.2 C 4.1 g/m*3 -1.2 C 0 km/h
848 25-11-2011 01:33:03 -1.8 C 3.93 g/m*3 -1.8 C 0 km/h
849 25-11-2011 01:45:03 -1.9 C 3.91 g/m*3 -1.9 C 0 km/h
850 25-11-2011 01:57:03 -1.7 C 3.96 g/m*3 -1.7 C 0 km/h
Sensor: Nr:Datum:Temp:Abs-Feuchte:Windchill:Wind:
Aussen-T/F 851 25-11-2011 02:09:03 -2 C 3.88 g/m*3 -2 C 0 km/h
852 25-11-2011 02:21:03 -2.1 C 3.85 g/m*3 -2.1 C 0 km/h
853 25-11-2011 02:33:03 -1.1 C 4.17 g/m*3 -1.1 C 0 km/h
854 25-11-2011 02:45:03 -1.7 C 3.96 g/m*3 -1.7 C 0 km/h
855 25-11-2011 02:57:03 -1.7 C 3.96 g/m*3 -1.7 C 0 km/h
856 25-11-2011 03:09:04 -2 C 3.88 g/m*3 -2 C 0 km/h
857 25-11-2011 03:21:04 -2.5 C 3.74 g/m*3 -2.5 C 0 km/h
858 25-11-2011 03:33:04 -2.8 C 3.63 g/m*3 -2.8 C 0 km/h
859 25-11-2011 03:45:04 -2.8 C 3.63 g/m*3 -2.8 C 0 km/h
860 25-11-2011 03:57:04 -3 C 3.57 g/m*3 -3 C 0 km/h
861 25-11-2011 04:09:04 -2.8 C 3.63 g/m*3 -2.8 C 0 km/h
862 25-11-2011 04:21:04 -2.6 C 3.68 g/m*3 -2.6 C 0 km/h
863 25-11-2011 04:33:04 -2.5 C 3.7 g/m*3 -2.5 C 0 km/h
864 25-11-2011 04:45:04 -2 C 3.84 g/m*3 -2 C 0 km/h
865 25-11-2011 04:57:04 -1.9 C 3.86 g/m*3 -1.9 C 0 km/h
866 25-11-2011 05:09:04 -2.5 C 3.7 g/m*3 -2.5 C 0 km/h
867 25-11-2011 05:21:04 -2.6 C 3.68 g/m*3 -2.6 C 0 km/h
868 25-11-2011 05:33:04 -2.9 C 3.56 g/m*3 -2.9 C 0 km/h
869 25-11-2011 05:45:04 -2.3 C 3.71 g/m*3 -2.3 C 0 km/h
870 25-11-2011 05:57:04 -2.1 C 3.81 g/m*3 -2.1 C 0 km/h
871 25-11-2011 06:09:04 -2 C 3.84 g/m*3 -2 C 0 km/h
872 25-11-2011 06:21:04 -2.2 C 3.78 g/m*3 -2.2 C 0 km/h
873 25-11-2011 06:33:04 -1.9 C 3.86 g/m*3 -1.9 C 0 km/h
874 25-11-2011 06:45:04 -1.3 C 4.07 g/m*3 -1.3 C 0 km/h
875 25-11-2011 06:57:04 -1.3 C 4.07 g/m*3 -1.3 C 0 km/h
Sensor: Nr:Datum:Temp:Abs-Feuchte:Windchill:Wind:
Aussen-T/F 876 25-11-2011 07:09:04 -1.1 C 4.13 g/m*3 -1.1 C 0 km/h
877 25-11-2011 07:21:05 -1.1 C 4.13 g/m*3 -1.1 C 0 km/h
878 25-11-2011 07:33:05 -1.6 C 3.99 g/m*3 -1.6 C 0 km/h
879 25-11-2011 07:45:05 -1.6 C 3.99 g/m*3 -1.6 C 0 km/h
880 25-11-2011 07:57:05 -1.8 C 3.93 g/m*3 -1.8 C 0 km/h
881 25-11-2011 08:09:02 -1.6 C 3.99 g/m*3 -1.6 C 0 km/h
882 25-11-2011 08:21:02 -2 C 3.88 g/m*3 -2 C 0 km/h
883 25-11-2011 08:33:02 -2.1 C 3.85 g/m*3 -2.1 C 0 km/h
884 25-11-2011 08:45:02 -1.8 C 3.93 g/m*3 -1.8 C 0 km/h
885 25-11-2011 08:57:03 -1.3 C 4.07 g/m*3 -1.3 C 0 km/h
886 25-11-2011 09:09:01 -0.6 C 4.32 g/m*3 -0.6 C 0 km/h
887 25-11-2011 09:21:02 -0.3 C 4.41 g/m*3 -0.3 C 0 km/h
888 25-11-2011 09:33:02 -0.2 C 4.44 g/m*3 -0.2 C 0 km/h
889 25-11-2011 09:45:02 -0.1 C 4.47 g/m*3 -0.1 C 0 km/h
890 25-11-2011 09:57:02 0.1 C 4.54 g/m*3 0.1 C 0 km/h
891 25-11-2011 10:09:03 0.3 C 4.6 g/m*3 0.3 C 0 km/h
892 25-11-2011 10:21:02 0.4 C 4.63 g/m*3 0.4 C 0 km/h
893 25-11-2011 10:33:02 0.8 C 4.71 g/m*3 0.8 C 0 km/h
894 25-11-2011 10:45:01 0.9 C 4.74 g/m*3 0.9 C 0 km/h
895 25-11-2011 10:57:01 1.1 C 4.7 g/m*3 1.1 C 0 km/h
896 25-11-2011 11:09:02 0.9 C 4.64 g/m*3 0.9 C 0 km/h
897 25-11-2011 11:21:01 1.3 C 4.72 g/m*3 1.3 C 0 km/h
898 25-11-2011 11:33:01 1.4 C 4.69 g/m*3 1.4 C 0 km/h
899 25-11-2011 11:45:01 1.1 C 4.6 g/m*3 1.1 C 0 km/h
900 25-11-2011 11:57:01 0.9 C 4.54 g/m*3 0.9 C 0 km/h
Sensor: Nr:Datum:Temp:Abs-Feuchte:Windchill:Wind:
Aussen-T/F 901 25-11-2011 12:09:02 1.3 C 4.66 g/m*3 1.3 C 0 km/h
902 25-11-2011 12:21:02 1.6 C 4.76 g/m*3 1.6 C 0 km/h
903 25-11-2011 12:33:01 1.7 C 4.74 g/m*3 1.7 C 0 km/h
904 25-11-2011 12:45:02 2.2 C 4.84 g/m*3 2.2 C 0 km/h
905 25-11-2011 12:57:02 2.4 C 4.8 g/m*3 2.4 C 0 km/h
906 25-11-2011 13:09:01 2.3 C 4.71 g/m*3 2.3 C 0 km/h
907 25-11-2011 13:21:02 2.6 C 4.75 g/m*3 2.6 C 0 km/h
908 25-11-2011 13:33:01 2.8 C 4.75 g/m*3 2.8 C 0 km/h
909 25-11-2011 13:45:02 3.4 C 4.76 g/m*3 3.4 C 0 km/h
910 25-11-2011 13:57:02 3.7 C 4.74 g/m*3 3.7 C 0 km/h
911 25-11-2011 14:09:02 4.2 C 4.7 g/m*3 4.2 C 0 km/h
912 25-11-2011 14:21:02 4.6 C 4.7 g/m*3 4.6 C 0 km/h
913 25-11-2011 14:33:03 4.6 C 4.7 g/m*3 4.6 C 0 km/h
914 25-11-2011 14:45:02 3.7 C 4.61 g/m*3 3.7 C 0 km/h
915 25-11-2011 14:57:03 3.6 C 4.64 g/m*3 3.6 C 0 km/h
916 25-11-2011 15:09:01 3.5 C 4.67 g/m*3 3.5 C 0 km/h
917 25-11-2011 15:21:02 3.7 C 4.8 g/m*3 3.7 C 0 km/h
918 25-11-2011 15:33:02 3.5 C 4.73 g/m*3 3.5 C 0 km/h
919 25-11-2011 15:45:02 3.3 C 4.73 g/m*3 3.3 C 0 km/h
920 25-11-2011 15:57:02 3.3 C 4.79 g/m*3 3.3 C 0 km/h
921 25-11-2011 16:09:03 3.2 C 4.76 g/m*3 3.2 C 0 km/h
922 25-11-2011 16:21:02 3.3 C 4.85 g/m*3 3.3 C 0 km/h
923 25-11-2011 16:33:02 3.2 C 4.82 g/m*3 3.2 C 0 km/h
924 25-11-2011 16:45:01 3.1 C 4.85 g/m*3 3.1 C 0 km/h
925 25-11-2011 16:57:01 3.2 C 4.94 g/m*3 3.2 C 0 km/h
Sensor: Nr:Datum:Temp:Abs-Feuchte:Windchill:Wind:
Aussen-T/F 926 25-11-2011 17:09:02 3.2 C 4.88 g/m*3 3.2 C 0 km/h
927 25-11-2011 17:21:01 3.3 C 4.91 g/m*3 3.3 C 0 km/h
928 25-11-2011 17:33:02 3.4 C 4.89 g/m*3 3.4 C 0 km/h
929 25-11-2011 17:45:01 3.4 C 4.83 g/m*3 3.4 C 0 km/h
930 25-11-2011 17:57:01 3.4 C 4.83 g/m*3 3.4 C 0 km/h
931 25-11-2011 18:09:02 3.4 C 4.83 g/m*3 3.4 C 0 km/h
932 25-11-2011 18:21:02 3.4 C 4.89 g/m*3 3.4 C 0 km/h
933 25-11-2011 18:33:01 3.3 C 4.79 g/m*3 3.3 C 0 km/h
934 25-11-2011 18:45:02 3.4 C 4.89 g/m*3 3.4 C 0 km/h
935 25-11-2011 18:57:02 3.4 C 4.89 g/m*3 3.4 C 0 km/h
936 25-11-2011 19:09:01 3.3 C 4.91 g/m*3 3.3 C 0 km/h
937 25-11-2011 19:21:02 3.6 C 5.01 g/m*3 3.6 C 0 km/h
938 25-11-2011 19:33:01 3.4 C 4.89 g/m*3 3.4 C 0 km/h
939 25-11-2011 19:45:02 3.6 C 5.01 g/m*3 3.6 C 0 km/h
940 25-11-2011 19:57:02 3.8 C 5.02 g/m*3 3.8 C 0 km/h
941 25-11-2011 20:09:01 3.9 C 5.05 g/m*3 3.9 C 0 km/h
942 25-11-2011 20:21:01 4 C 5.02 g/m*3 4 C 0 km/h
943 25-11-2011 20:33:01 4.1 C 5.06 g/m*3 4.1 C 0 km/h
944 25-11-2011 20:45:02 4 C 4.96 g/m*3 4 C 0 km/h
945 25-11-2011 20:57:03 4 C 5.02 g/m*3 4 C 0 km/h
946 25-11-2011 21:09:01 3.8 C 5.02 g/m*3 3.8 C 0 km/h
947 25-11-2011 21:21:02 3.7 C 4.99 g/m*3 3.7 C 0 km/h
948 25-11-2011 21:33:02 3.7 C 5.05 g/m*3 3.7 C 0 km/h
949 25-11-2011 21:45:01 3.7 C 5.05 g/m*3 3.7 C 0 km/h
950 25-11-2011 21:57:01 3.7 C 5.11 g/m*3 3.7 C 0 km/h
Sensor: Nr:Datum:Temp:Abs-Feuchte:Windchill:Wind:
Aussen-T/F 951 25-11-2011 22:09:02 3.9 C 5.18 g/m*3 3.9 C 0 km/h
952 25-11-2011 22:21:01 4 C 5.15 g/m*3 4 C 0 km/h
953 25-11-2011 22:33:02 4 C 5.15 g/m*3 4 C 0 km/h
954 25-11-2011 22:45:02 4 C 5.15 g/m*3 4 C 0 km/h
955 25-11-2011 22:57:02 4.1 C 5.25 g/m*3 4.1 C 0 km/h
956 25-11-2011 23:09:02 4.2 C 5.28 g/m*3 4.2 C 0 km/h
957 25-11-2011 23:21:01 4.3 C 5.32 g/m*3 4.3 C 0 km/h
958 25-11-2011 23:33:02 4.4 C 5.29 g/m*3 4.4 C 0 km/h
959 25-11-2011 23:45:02 4.4 C 5.29 g/m*3 4.4 C 0 km/h
960 25-11-2011 23:57:02 4.4 C 5.29 g/m*3 4.4 C 0 km/h
961 26-11-2011 00:09:02 4.1 C 5.18 g/m*3 4.1 C 0 km/h
962 26-11-2011 00:21:02 3.6 C 5.14 g/m*3 3.6 C 0 km/h
963 26-11-2011 00:33:01 3.7 C 5.23 g/m*3 3.7 C 0 km/h
964 26-11-2011 00:45:02 4 C 5.34 g/m*3 4 C 0 km/h
965 26-11-2011 00:57:03 3.2 C 5.06 g/m*3 3.2 C 0 km/h
966 26-11-2011 01:09:01 2.7 C 5.01 g/m*3 2.7 C 0 km/h
967 26-11-2011 01:21:01 3.7 C 5.42 g/m*3 3.7 C 0 km/h
968 26-11-2011 01:33:02 3.7 C 5.42 g/m*3 3.7 C 0 km/h
969 26-11-2011 01:45:02 3 C 5.11 g/m*3 3 C 0 km/h
970 26-11-2011 01:57:02 3.2 C 5.3 g/m*3 3.2 C 0 km/h
971 26-11-2011 02:09:02 3.6 C 5.45 g/m*3 3.6 C 0 km/h
972 26-11-2011 02:21:02 3.5 C 5.41 g/m*3 3.5 C 0 km/h
973 26-11-2011 02:33:02 3.7 C 5.48 g/m*3 3.7 C 0 km/h
974 26-11-2011 02:45:01 4.3 C 5.58 g/m*3 4.3 C 0 km/h
975 26-11-2011 02:57:01 4.4 C 5.55 g/m*3 4.4 C 0 km/h
Sensor: Nr:Datum:Temp:Abs-Feuchte:Windchill:Wind:
Aussen-T/F 976 26-11-2011 03:09:01 4.4 C 5.42 g/m*3 4.4 C 0 km/h
977 26-11-2011 03:21:02 4.5 C 5.46 g/m*3 4.5 C 0 km/h
978 26-11-2011 03:33:01 4.6 C 5.49 g/m*3 4.6 C 0 km/h
979 26-11-2011 03:45:01 4.6 C 5.43 g/m*3 4.6 C 0 km/h
980 26-11-2011 03:57:01 4.9 C 5.54 g/m*3 4.9 C 0 km/h
981 26-11-2011 04:09:02 4.8 C 5.43 g/m*3 4.8 C 0 km/h
982 26-11-2011 04:21:01 4.8 C 5.5 g/m*3 4.8 C 0 km/h
983 26-11-2011 04:33:02 4.6 C 5.43 g/m*3 4.6 C 0 km/h
984 26-11-2011 04:45:01 4.3 C 5.38 g/m*3 4.3 C 0 km/h
985 26-11-2011 04:57:01 4.2 C 5.41 g/m*3 4.2 C 0 km/h
986 26-11-2011 05:09:02 4.7 C 5.6 g/m*3 4.7 C 0 km/h
987 26-11-2011 05:21:01 4.8 C 5.57 g/m*3 4.8 C 0 km/h
988 26-11-2011 05:33:01 4.5 C 5.46 g/m*3 4.5 C 0 km/h
989 26-11-2011 05:45:01 4.3 C 5.45 g/m*3 4.3 C 0 km/h
990 26-11-2011 05:57:01 4.3 C 5.45 g/m*3 4.3 C 0 km/h
991 26-11-2011 06:09:01 4.3 C 5.51 g/m*3 4.3 C 0 km/h
992 26-11-2011 06:21:01 4.3 C 5.51 g/m*3 4.3 C 0 km/h
993 26-11-2011 06:33:01 4.1 C 5.44 g/m*3 4.1 C 0 km/h
994 26-11-2011 06:45:01 4.4 C 5.62 g/m*3 4.4 C 0 km/h
995 26-11-2011 06:57:01 4.3 C 5.58 g/m*3 4.3 C 0 km/h
996 26-11-2011 07:09:01 4.5 C 5.59 g/m*3 4.5 C 0 km/h
997 26-11-2011 07:21:02 4.7 C 5.6 g/m*3 4.7 C 0 km/h
998 26-11-2011 07:33:01 4.5 C 5.52 g/m*3 4.5 C 0 km/h
999 26-11-2011 07:45:02 4.2 C 5.41 g/m*3 4.2 C 0 km/h
1000 26-11-2011 07:57:02 4.3 C 5.51 g/m*3 4.3 C 0 km/h
Sensor: Nr:Datum:Temp:Abs-Feuchte:Windchill:Wind:
Aussen-T/F 1001 26-11-2011 08:09:01 4.3 C 5.51 g/m*3 4.3 C 0 km/h
1002 26-11-2011 08:21:01 4.4 C 5.55 g/m*3 4.4 C 0 km/h
1003 26-11-2011 08:33:02 5 C 5.71 g/m*3 5 C 0 km/h
1004 26-11-2011 08:45:01 4.7 C 5.6 g/m*3 4.7 C 0 km/h
1005 26-11-2011 08:57:01 4.8 C 5.63 g/m*3 4.8 C 0 km/h
1006 26-11-2011 09:09:01 5 C 5.57 g/m*3 5 C 0 km/h
1007 26-11-2011 09:21:01 5.1 C 5.61 g/m*3 5.1 C 0 km/h
1008 26-11-2011 09:33:02 5 C 5.5 g/m*3 5 C 0 km/h
1009 26-11-2011 09:45:01 5.6 C 5.59 g/m*3 5.6 C 0 km/h
1010 26-11-2011 09:57:01 5.7 C 5.55 g/m*3 5.7 C 0 km/h
1011 26-11-2011 10:09:02 6.3 C 5.48 g/m*3 6.3 C 0 km/h
1012 26-11-2011 10:21:01 6.4 C 5.44 g/m*3 6.4 C 0 km/h
1013 26-11-2011 10:33:01 6.7 C 5.47 g/m*3 6.7 C 0 km/h
1014 26-11-2011 10:45:01 6.9 C 5.47 g/m*3 6.9 C 0 km/h
1015 26-11-2011 10:57:01 7 C 5.42 g/m*3 7 C 0 km/h
1016 26-11-2011 11:09:01 7.2 C 5.49 g/m*3 7.2 C 0 km/h
1017 26-11-2011 11:21:01 7.3 C 5.45 g/m*3 7.3 C 0 km/h
1018 26-11-2011 11:33:01 7.3 C 5.53 g/m*3 7.3 C 0 km/h
1019 26-11-2011 11:45:01 7.4 C 5.57 g/m*3 7.4 C 0 km/h
1020 26-11-2011 11:57:01 7.5 C 5.6 g/m*3 7.5 C 0 km/h
1021 26-11-2011 12:09:01 7.4 C 5.57 g/m*3 7.4 C 0 km/h
1022 26-11-2011 12:21:02 7.6 C 5.72 g/m*3 7.6 C 0 km/h
1023 26-11-2011 12:33:01 7.5 C 5.68 g/m*3 7.5 C 0 km/h
1024 26-11-2011 12:45:02 7.7 C 5.68 g/m*3 7.7 C 0 km/h
1025 26-11-2011 12:57:02 7.9 C 5.75 g/m*3 7.9 C 0 km/h
Sensor: Nr:Datum:Temp:Abs-Feuchte:Windchill:Wind:
Aussen-T/F 1026 26-11-2011 13:09:01 7.9 C 5.75 g/m*3 7.9 C 0 km/h
1027 26-11-2011 13:21:01 8 C 5.7 g/m*3 8 C 0 km/h
1028 26-11-2011 13:33:01 8.1 C 5.74 g/m*3 8.1 C 0 km/h
1029 26-11-2011 13:45:01 8.1 C 5.66 g/m*3 8.1 C 0 km/h
1030 26-11-2011 13:57:02 8.2 C 5.69 g/m*3 8.2 C 0 km/h
1031 26-11-2011 14:09:01 8.4 C 5.77 g/m*3 8.4 C 0 km/h
1032 26-11-2011 14:21:01 8.2 C 5.69 g/m*3 8.2 C 0 km/h
1033 26-11-2011 14:33:02 8.2 C 5.69 g/m*3 8.2 C 0 km/h
1034 26-11-2011 14:45:01 8.2 C 5.69 g/m*3 8.2 C 0 km/h
1035 26-11-2011 14:57:01 8.2 C 5.69 g/m*3 8.2 C 0 km/h
1036 26-11-2011 15:09:02 8.5 C 5.81 g/m*3 8.5 C 0 km/h
1037 26-11-2011 15:21:01 8.2 C 5.69 g/m*3 8.2 C 0 km/h
1038 26-11-2011 15:33:02 8 C 5.7 g/m*3 8 C 0 km/h
1039 26-11-2011 15:45:01 8 C 5.7 g/m*3 8 C 0 km/h
1040 26-11-2011 15:57:01 8 C 5.7 g/m*3 8 C 0 km/h
1041 26-11-2011 16:09:02 8.1 C 5.74 g/m*3 8.1 C 0 km/h
1042 26-11-2011 16:21:01 7.8 C 5.79 g/m*3 7.8 C 0 km/h
1043 26-11-2011 16:33:01 7.8 C 5.88 g/m*3 7.8 C 0 km/h
1044 26-11-2011 16:45:01 7.8 C 5.79 g/m*3 7.8 C 0 km/h
1045 26-11-2011 16:57:01 7.7 C 5.76 g/m*3 7.7 C 0 km/h
1046 26-11-2011 17:09:01 8.1 C 5.74 g/m*3 8.1 C 0 km/h
1047 26-11-2011 17:21:02 8.3 C 5.73 g/m*3 8.3 C 0 km/h
1048 26-11-2011 17:33:01 8.1 C 5.66 g/m*3 8.1 C 0 km/h
1049 26-11-2011 17:45:02 8.1 C 5.66 g/m*3 8.1 C 0 km/h
1050 26-11-2011 17:57:02 7.9 C 5.67 g/m*3 7.9 C 0 km/h
Sensor: Nr:Datum:Temp:Abs-Feuchte:Windchill:Wind:
Aussen-T/F 1051 26-11-2011 18:09:01 8 C 5.62 g/m*3 8 C 0 km/h
1052 26-11-2011 18:21:02 7.9 C 5.75 g/m*3 7.9 C 0 km/h
1053 26-11-2011 18:33:01 8.2 C 5.69 g/m*3 8.2 C 0 km/h
1054 26-11-2011 18:45:02 8.2 C 5.61 g/m*3 8.2 C 0 km/h
1055 26-11-2011 18:57:02 8.2 C 5.61 g/m*3 8.2 C 0 km/h
1056 26-11-2011 19:09:01 8.3 C 5.65 g/m*3 8.3 C 0 km/h
1057 26-11-2011 19:21:01 8.2 C 5.53 g/m*3 8.2 C 0 km/h
1058 26-11-2011 19:33:02 8.2 C 5.53 g/m*3 8.2 C 0 km/h
1059 26-11-2011 19:45:01 8.1 C 5.57 g/m*3 8.1 C 0 km/h
1060 26-11-2011 19:57:01 7.9 C 5.59 g/m*3 7.9 C 0 km/h
1061 26-11-2011 20:09:01 7.9 C 5.59 g/m*3 7.9 C 0 km/h
1062 26-11-2011 20:21:01 7.8 C 5.55 g/m*3 7.8 C 0 km/h
1063 26-11-2011 20:33:02 7.7 C 5.43 g/m*3 7.7 C 0 km/h
1064 26-11-2011 20:45:01 7.6 C 5.4 g/m*3 7.6 C 0 km/h
1065 26-11-2011 20:57:01 7.6 C 5.4 g/m*3 7.6 C 0 km/h
1066 26-11-2011 21:09:02 7.5 C 5.44 g/m*3 7.5 C 0 km/h
1067 26-11-2011 21:21:01 7.4 C 5.41 g/m*3 7.4 C 0 km/h
1068 26-11-2011 21:33:01 7.4 C 5.49 g/m*3 7.4 C 0 km/h
1069 26-11-2011 21:45:01 7.3 C 5.45 g/m*3 7.3 C 0 km/h
1070 26-11-2011 21:57:01 7 C 5.27 g/m*3 7 C 0 km/h
1071 26-11-2011 22:09:02 7 C 5.35 g/m*3 7 C 0 km/h
1072 26-11-2011 22:21:01 6.8 C 5.28 g/m*3 6.8 C 0 km/h
1073 26-11-2011 22:33:01 6.7 C 5.17 g/m*3 6.7 C 0 km/h
1074 26-11-2011 22:45:01 6.4 C 5.07 g/m*3 6.4 C 0 km/h
1075 26-11-2011 22:57:01 6.5 C 5.02 g/m*3 6.5 C 0 km/h
Sensor: Nr:Datum:Temp:Abs-Feuchte:Windchill:Wind:
Aussen-T/F 1076 26-11-2011 23:09:01 6.7 C 5.09 g/m*3 6.7 C 0 km/h
1077 26-11-2011 23:21:02 6.9 C 5.08 g/m*3 6.9 C 0 km/h
1078 26-11-2011 23:33:01 7 C 4.96 g/m*3 7 C 0 km/h
1079 26-11-2011 23:45:02 7 C 4.96 g/m*3 7 C 0 km/h
1080 26-11-2011 23:57:02 6.9 C 5.16 g/m*3 6.9 C 0 km/h
1081 27-11-2011 00:09:01 7 C 5.04 g/m*3 7 C 0 km/h
1082 27-11-2011 00:21:01 7 C 5.11 g/m*3 7 C 0 km/h
1083 27-11-2011 00:33:01 7 C 5.11 g/m*3 7 C 0 km/h
1084 27-11-2011 00:45:01 7 C 5.11 g/m*3 7 C 0 km/h
1085 27-11-2011 00:57:01 7 C 5.11 g/m*3 7 C 0 km/h
1086 27-11-2011 01:09:01 6.9 C 5.16 g/m*3 6.9 C 0 km/h
1087 27-11-2011 01:21:02 7 C 5.11 g/m*3 7 C 0 km/h
1088 27-11-2011 01:33:01 7 C 5.19 g/m*3 7 C 0 km/h
1089 27-11-2011 01:45:02 7.1 C 5.15 g/m*3 7.1 C 0 km/h
1090 27-11-2011 01:57:02 7 C 5.11 g/m*3 7 C 0 km/h
1091 27-11-2011 02:09:01 7 C 5.19 g/m*3 7 C 0 km/h
1092 27-11-2011 02:21:02 7 C 5.19 g/m*3 7 C 0 km/h
1093 27-11-2011 02:33:01 7 C 5.19 g/m*3 7 C 0 km/h
1094 27-11-2011 02:46:06 6.9 C 5.23 g/m*3 6.9 C 0 km/h
1095 27-11-2011 02:58:06 7 C 5.19 g/m*3 7 C 0 km/h
1096 27-11-2011 03:10:05 7 C 5.19 g/m*3 7 C 0 km/h
1097 27-11-2011 03:22:05 6.9 C 5.31 g/m*3 6.9 C 0 km/h
1098 27-11-2011 03:34:01 6.9 C 5.31 g/m*3 6.9 C 0 km/h
1099 27-11-2011 03:46:01 6.9 C 5.31 g/m*3 6.9 C 0 km/h
1100 27-11-2011 03:58:01 7 C 5.27 g/m*3 7 C 0 km/h
Sensor: Nr:Datum:Temp:Abs-Feuchte:Windchill:Wind:
Aussen-T/F 1101 27-11-2011 04:10:02 6.9 C 5.31 g/m*3 6.9 C 0 km/h
1102 27-11-2011 04:22:02 6.9 C 5.31 g/m*3 6.9 C 0 km/h
1103 27-11-2011 04:34:01 6.8 C 5.28 g/m*3 6.8 C 0 km/h
1104 27-11-2011 04:46:02 6.8 C 5.35 g/m*3 6.8 C 0 km/h
1105 27-11-2011 04:58:02 6.7 C 5.32 g/m*3 6.7 C 0 km/h
1106 27-11-2011 05:10:01 6.7 C 5.32 g/m*3 6.7 C 0 km/h
1107 27-11-2011 05:22:02 6.6 C 5.21 g/m*3 6.6 C 0 km/h
1108 27-11-2011 05:34:01 6.4 C 5.22 g/m*3 6.4 C 0 km/h
1109 27-11-2011 05:46:02 6.4 C 5.22 g/m*3 6.4 C 0 km/h
1110 27-11-2011 05:58:02 6.4 C 5.22 g/m*3 6.4 C 0 km/h
1111 27-11-2011 06:10:02 6.4 C 5.22 g/m*3 6.4 C 0 km/h
1112 27-11-2011 06:22:02 6.5 C 5.25 g/m*3 6.5 C 0 km/h
1113 27-11-2011 06:34:02 6.3 C 5.26 g/m*3 6.3 C 0 km/h
1114 27-11-2011 06:46:01 6.4 C 5.22 g/m*3 6.4 C 0 km/h
1115 27-11-2011 06:58:01 6.3 C 5.26 g/m*3 6.3 C 0 km/h
1116 27-11-2011 07:10:01 6.4 C 5.22 g/m*3 6.4 C 0 km/h
1117 27-11-2011 07:22:01 6.5 C 5.25 g/m*3 6.5 C 0 km/h
1118 27-11-2011 07:34:02 6.4 C 5.14 g/m*3 6.4 C 0 km/h
1119 27-11-2011 07:46:02 6.6 C 5.21 g/m*3 6.6 C 0 km/h
1120 27-11-2011 07:58:02 6.6 C 5.13 g/m*3 6.6 C 0 km/h
1121 27-11-2011 08:10:02 6.6 C 5.13 g/m*3 6.6 C 0 km/h
1122 27-11-2011 08:22:01 6.4 C 5.07 g/m*3 6.4 C 0 km/h
1123 27-11-2011 08:34:02 6.4 C 4.99 g/m*3 6.4 C 0 km/h
1124 27-11-2011 08:46:02 6.5 C 4.95 g/m*3 6.5 C 0 km/h
1125 27-11-2011 08:58:02 6.8 C 5.05 g/m*3 6.8 C 0 km/h
Sensor: Nr:Datum:Temp:Abs-Feuchte:Windchill:Wind:
Aussen-T/F 1126 27-11-2011 09:10:02 7.1 C 4.91 g/m*3 7.1 C 0 km/h
1127 27-11-2011 09:22:01 7.2 C 4.87 g/m*3 7.2 C 0 km/h
1128 27-11-2011 09:34:02 7 C 4.8 g/m*3 7 C 0 km/h
1129 27-11-2011 09:46:01 7.2 C 4.87 g/m*3 7.2 C 0 km/h
1130 27-11-2011 09:58:01 7.3 C 4.9 g/m*3 7.3 C 0 km/h
1131 27-11-2011 10:10:02 7.6 C 4.91 g/m*3 7.6 C 0 km/h
1132 27-11-2011 10:22:02 7.7 C 4.95 g/m*3 7.7 C 0 km/h
1133 27-11-2011 10:34:02 7.9 C 4.93 g/m*3 7.9 C 0 km/h
1134 27-11-2011 10:46:02 8 C 4.88 g/m*3 8 C 0 km/h
1135 27-11-2011 10:58:02 8 C 4.88 g/m*3 8 C 0 km/h
1136 27-11-2011 11:10:01 7.9 C 4.93 g/m*3 7.9 C 0 km/h
1137 27-11-2011 11:22:02 8 C 4.96 g/m*3 8 C 0 km/h
1138 27-11-2011 11:34:01 8 C 5.04 g/m*3 8 C 0 km/h
1139 27-11-2011 11:46:01 8.1 C 5.08 g/m*3 8.1 C 0 km/h
1140 27-11-2011 11:58:01 8.1 C 5.16 g/m*3 8.1 C 0 km/h
1141 27-11-2011 12:10:01 8.2 C 5.19 g/m*3 8.2 C 0 km/h
1142 27-11-2011 12:22:01 8.5 C 5.29 g/m*3 8.5 C 0 km/h
1143 27-11-2011 12:34:02 8.4 C 5.26 g/m*3 8.4 C 0 km/h
1144 27-11-2011 12:46:02 8.5 C 5.29 g/m*3 8.5 C 0 km/h
1145 27-11-2011 12:58:02 8.7 C 5.36 g/m*3 8.7 C 0 km/h
1146 27-11-2011 13:10:02 9 C 5.38 g/m*3 9 C 0 km/h
1147 27-11-2011 13:22:01 9.3 C 5.48 g/m*3 9.3 C 0 km/h
1148 27-11-2011 13:34:02 9.6 C 5.59 g/m*3 9.6 C 0 km/h
1149 27-11-2011 13:46:02 9.1 C 5.5 g/m*3 9.1 C 0 km/h
1150 27-11-2011 13:58:02 8.9 C 5.69 g/m*3 8.9 C 0 km/h
Sensor: Nr:Datum:Temp:Abs-Feuchte:Windchill:Wind:
Aussen-T/F 1151 27-11-2011 14:10:02 8.9 C 5.69 g/m*3 8.9 C 0 km/h
1152 27-11-2011 14:22:02 9 C 5.73 g/m*3 9 C 0 km/h
1153 27-11-2011 14:34:02 8.9 C 5.87 g/m*3 8.9 C 0 km/h
1154 27-11-2011 14:46:02 8.7 C 5.97 g/m*3 8.7 C 0 km/h
1155 27-11-2011 14:58:02 8.7 C 5.97 g/m*3 8.7 C 0 km/h
1156 27-11-2011 15:10:02 8.6 C 6.02 g/m*3 8.6 C 0 km/h
1157 27-11-2011 15:22:02 8.7 C 6.05 g/m*3 8.7 C 0 km/h
1158 27-11-2011 15:34:02 8.8 C 6.18 g/m*3 8.8 C 0 km/h
1159 27-11-2011 15:46:02 8.8 C 6.18 g/m*3 8.8 C 0 km/h
1160 27-11-2011 15:58:02 8.9 C 6.22 g/m*3 8.9 C 0 km/h
1161 27-11-2011 16:10:02 8.6 C 6.19 g/m*3 8.6 C 0 km/h
1162 27-11-2011 16:22:02 8.6 C 6.44 g/m*3 8.6 C 0 km/h
1163 27-11-2011 16:34:01 8.5 C 6.4 g/m*3 8.5 C 0 km/h
1164 27-11-2011 16:46:02 8.7 C 6.49 g/m*3 8.7 C 0 km/h
1165 27-11-2011 16:58:02 8.3 C 6.41 g/m*3 8.3 C 0 km/h
1166 27-11-2011 17:10:01 8.7 C 6.66 g/m*3 8.7 C 0 km/h
1167 27-11-2011 17:22:02 8.6 C 6.62 g/m*3 8.6 C 0 km/h
1168 27-11-2011 17:34:02 8.8 C 6.7 g/m*3 8.8 C 0 km/h
1169 27-11-2011 17:46:02 8.9 C 6.66 g/m*3 8.9 C 0 km/h
1170 27-11-2011 17:58:02 8.6 C 6.53 g/m*3 8.6 C 0 km/h
1171 27-11-2011 18:10:02 8.6 C 6.62 g/m*3 8.6 C 0 km/h
1172 27-11-2011 18:22:02 8.8 C 6.7 g/m*3 8.8 C 0 km/h
1173 27-11-2011 18:34:02 9.1 C 6.65 g/m*3 9.1 C 0 km/h
1174 27-11-2011 18:46:01 9.3 C 6.74 g/m*3 9.3 C 0 km/h
1175 27-11-2011 18:58:01 8.7 C 6.75 g/m*3 8.7 C 0 km/h
Sensor: Nr:Datum:Temp:Abs-Feuchte:Windchill:Wind:
Aussen-T/F 1176 27-11-2011 19:10:02 8.7 C 7.01 g/m*3 8.7 C 0 km/h
1177 27-11-2011 19:22:01 8.9 C 7.18 g/m*3 8.9 C 0 km/h
1178 27-11-2011 19:34:02 8.8 C 7.14 g/m*3 8.8 C 0 km/h
1179 27-11-2011 19:46:01 9.1 C 7.19 g/m*3 9.1 C 0 km/h
1180 27-11-2011 19:58:01 9.1 C 7.01 g/m*3 9.1 C 0 km/h
1181 27-11-2011 20:10:02 8.8 C 6.88 g/m*3 8.8 C 0 km/h
1182 27-11-2011 20:22:01 8.6 C 6.87 g/m*3 8.6 C 0 km/h
1183 27-11-2011 20:34:02 7.9 C 6.65 g/m*3 7.9 C 0 km/h
1184 27-11-2011 20:46:01 7 C 6.35 g/m*3 7 C 0 km/h
1185 27-11-2011 20:58:01 7.2 C 6.52 g/m*3 7.2 C 0 km/h
1186 27-11-2011 21:10:02 6.7 C 6.38 g/m*3 6.7 C 0 km/h
1187 27-11-2011 21:22:02 6.6 C 6.27 g/m*3 6.6 C 0 km/h
1188 27-11-2011 21:34:01 6.4 C 6.26 g/m*3 6.4 C 0 km/h
1189 27-11-2011 21:46:02 6.6 C 6.27 g/m*3 6.6 C 0 km/h
1190 27-11-2011 21:58:02 6.5 C 6.07 g/m*3 6.5 C 0 km/h
1191 27-11-2011 22:10:01 5.9 C 5.91 g/m*3 5.9 C 0 km/h
1192 27-11-2011 22:22:02 5.8 C 5.87 g/m*3 5.8 C 0 km/h
1193 27-11-2011 22:34:01 5.8 C 5.87 g/m*3 5.8 C 0 km/h
1194 27-11-2011 22:46:02 4.7 C 5.46 g/m*3 4.7 C 0 km/h
1195 27-11-2011 22:58:02 4.1 C 5.31 g/m*3 4.1 C 0 km/h
1196 27-11-2011 23:10:02 4.8 C 5.7 g/m*3 4.8 C 0 km/h
1197 27-11-2011 23:22:02 4.5 C 5.59 g/m*3 4.5 C 0 km/h
1198 27-11-2011 23:34:03 4 C 5.47 g/m*3 4 C 0 km/h
1199 27-11-2011 23:46:02 3.9 C 5.49 g/m*3 3.9 C 0 km/h
1200 27-11-2011 23:58:02 3.2 C 5.24 g/m*3 3.2 C 0 km/h
Sensor: Nr:Datum:Temp:Abs-Feuchte:Windchill:Wind:
Aussen-T/F 1201 28-11-2011 00:10:02 2.8 C 5.16 g/m*3 2.8 C 0 km/h
1202 28-11-2011 00:22:01 3.3 C 5.34 g/m*3 3.3 C 0 km/h
1203 28-11-2011 00:34:02 2.8 C 5.22 g/m*3 2.8 C 0 km/h
1204 28-11-2011 00:46:01 2.7 C 5.19 g/m*3 2.7 C 0 km/h
1205 28-11-2011 00:58:01 2.3 C 5.05 g/m*3 2.3 C 0 km/h
1206 28-11-2011 01:10:02 2.6 C 5.15 g/m*3 2.6 C 0 km/h
1207 28-11-2011 01:22:02 2.5 C 5.17 g/m*3 2.5 C 0 km/h
1208 28-11-2011 01:34:01 3 C 5.35 g/m*3 3 C 0 km/h
1209 28-11-2011 01:46:02 2.8 C 5.34 g/m*3 2.8 C 0 km/h
1210 28-11-2011 01:58:02 2.3 C 5.16 g/m*3 2.3 C 0 km/h
1211 28-11-2011 02:10:01 2.1 C 5.09 g/m*3 2.1 C 0 km/h
1212 28-11-2011 02:22:02 2.1 C 5.09 g/m*3 2.1 C 0 km/h
1213 28-11-2011 02:34:01 2.1 C 5.09 g/m*3 2.1 C 0 km/h
1214 28-11-2011 02:46:02 2.2 C 5.13 g/m*3 2.2 C 0 km/h
1215 28-11-2011 02:58:02 1.3 C 4.82 g/m*3 1.3 C 0 km/h
1216 28-11-2011 03:10:01 1.5 C 4.94 g/m*3 1.5 C 0 km/h
1217 28-11-2011 03:22:01 1.5 C 4.94 g/m*3 1.5 C 0 km/h
1218 28-11-2011 03:34:02 1.7 C 5.01 g/m*3 1.7 C 0 km/h
1219 28-11-2011 03:46:02 1.2 C 4.84 g/m*3 1.2 C 0 km/h
1220 28-11-2011 03:58:02 1.2 C 4.84 g/m*3 1.2 C 0 km/h
1221 28-11-2011 04:10:01 0.7 C 4.68 g/m*3 0.7 C 0 km/h
1222 28-11-2011 04:22:02 0.4 C 4.63 g/m*3 0.4 C 0 km/h
1223 28-11-2011 04:34:01 0.3 C 4.6 g/m*3 0.3 C 0 km/h
1224 28-11-2011 04:46:02 0.9 C 4.79 g/m*3 0.9 C 0 km/h
1225 28-11-2011 04:58:02 0.5 C 4.66 g/m*3 0.5 C 0 km/h
Sensor: Nr:Datum:Temp:Abs-Feuchte:Windchill:Wind:
Aussen-T/F 1226 28-11-2011 05:10:01 0.1 C 4.54 g/m*3 0.1 C 0 km/h
1227 28-11-2011 05:22:01 -0.2 C 4.44 g/m*3 -0.2 C 0 km/h
1228 28-11-2011 05:34:02 0.4 C 4.63 g/m*3 0.4 C 0 km/h
1229 28-11-2011 05:46:01 0.3 C 4.6 g/m*3 0.3 C 0 km/h
1230 28-11-2011 05:58:01 0.1 C 4.54 g/m*3 0.1 C 0 km/h
1231 28-11-2011 06:10:02 0 C 4.51 g/m*3 0 C 0 km/h
1232 28-11-2011 06:22:01 0 C 4.51 g/m*3 0 C 0 km/h
1233 28-11-2011 06:34:01 0 C 4.51 g/m*3 0 C 0 km/h
1234 28-11-2011 06:46:01 -0.1 C 4.47 g/m*3 -0.1 C 0 km/h
1235 28-11-2011 06:58:01 -0.3 C 4.41 g/m*3 -0.3 C 0 km/h
1236 28-11-2011 07:10:02 -0.2 C 4.49 g/m*3 -0.2 C 0 km/h
1237 28-11-2011 07:22:01 0.1 C 4.59 g/m*3 0.1 C 0 km/h
1238 28-11-2011 07:34:01 0 C 4.55 g/m*3 0 C 0 km/h
1239 28-11-2011 07:46:01 0 C 4.55 g/m*3 0 C 0 km/h
1240 28-11-2011 07:58:01 -0.2 C 4.49 g/m*3 -0.2 C 0 km/h
1241 28-11-2011 08:10:01 -0.1 C 4.52 g/m*3 -0.1 C 0 km/h
1242 28-11-2011 08:22:02 0.1 C 4.59 g/m*3 0.1 C 0 km/h
1243 28-11-2011 08:34:01 0 C 4.55 g/m*3 0 C 0 km/h
1244 28-11-2011 08:46:02 -0.2 C 4.49 g/m*3 -0.2 C 0 km/h
1245 28-11-2011 08:58:02 -0.2 C 4.49 g/m*3 -0.2 C 0 km/h
1246 28-11-2011 09:10:01 -0.2 C 4.49 g/m*3 -0.2 C 0 km/h
1247 28-11-2011 09:22:02 -0.2 C 4.49 g/m*3 -0.2 C 0 km/h
1248 28-11-2011 09:34:01 -0.1 C 4.52 g/m*3 -0.1 C 0 km/h
1249 28-11-2011 09:46:01 -0.2 C 4.49 g/m*3 -0.2 C 0 km/h
1250 28-11-2011 09:58:02 0 C 4.55 g/m*3 0 C 0 km/h
Sensor: Nr:Datum:Temp:Abs-Feuchte:Windchill:Wind:
Aussen-T/F 1251 28-11-2011 10:10:01 0.3 C 4.65 g/m*3 0.3 C 0 km/h
1252 28-11-2011 10:22:01 0.5 C 4.71 g/m*3 0.5 C 0 km/h
1253 28-11-2011 10:34:02 0.4 C 4.68 g/m*3 0.4 C 0 km/h
1254 28-11-2011 10:46:01 0.7 C 4.78 g/m*3 0.7 C 0 km/h
1255 28-11-2011 10:58:01 0.7 C 4.78 g/m*3 0.7 C 0 km/h
1256 28-11-2011 11:10:02 0.8 C 4.81 g/m*3 0.8 C 0 km/h
1257 28-11-2011 11:22:01 1 C 4.88 g/m*3 1 C 0 km/h
1258 28-11-2011 11:34:01 0.8 C 4.81 g/m*3 0.8 C 0 km/h
1259 28-11-2011 11:46:01 1.3 C 4.93 g/m*3 1.3 C 0 km/h
1260 28-11-2011 11:58:01 1.4 C 4.96 g/m*3 1.4 C 0 km/h
1261 28-11-2011 12:10:02 1.8 C 5.1 g/m*3 1.8 C 0 km/h
1262 28-11-2011 12:22:01 1.8 C 5.1 g/m*3 1.8 C 0 km/h
1263 28-11-2011 12:34:01 2.1 C 5.15 g/m*3 2.1 C 0 km/h
1264 28-11-2011 12:46:01 2.1 C 5.15 g/m*3 2.1 C 0 km/h
1265 28-11-2011 12:58:01 2.3 C 5.22 g/m*3 2.3 C 0 km/h
1266 28-11-2011 13:10:01 2.1 C 5.09 g/m*3 2.1 C 0 km/h
1267 28-11-2011 13:22:02 2.6 C 5.27 g/m*3 2.6 C 0 km/h
1268 28-11-2011 13:34:01 2.7 C 5.3 g/m*3 2.7 C 0 km/h
1269 28-11-2011 13:46:02 2.8 C 5.34 g/m*3 2.8 C 0 km/h
1270 28-11-2011 13:58:02 2.6 C 5.21 g/m*3 2.6 C 0 km/h
1271 28-11-2011 14:10:01 2.8 C 5.28 g/m*3 2.8 C 0 km/h
1272 28-11-2011 14:22:01 2.8 C 5.28 g/m*3 2.8 C 0 km/h
1273 28-11-2011 14:34:01 2.8 C 5.28 g/m*3 2.8 C 0 km/h
1274 28-11-2011 14:46:01 2.9 C 5.32 g/m*3 2.9 C 0 km/h
1275 28-11-2011 14:58:01 2.9 C 5.32 g/m*3 2.9 C 0 km/h
Sensor: Nr:Datum:Temp:Abs-Feuchte:Windchill:Wind:
Aussen-T/F 1276 28-11-2011 15:10:01 2.8 C 5.28 g/m*3 2.8 C 0 km/h
1277 28-11-2011 15:22:02 2.7 C 5.24 g/m*3 2.7 C 0 km/h
1278 28-11-2011 15:34:01 2.5 C 5.23 g/m*3 2.5 C 0 km/h
1279 28-11-2011 15:46:02 2.4 C 5.2 g/m*3 2.4 C 0 km/h
1280 28-11-2011 15:58:02 2.3 C 5.16 g/m*3 2.3 C 0 km/h
1281 28-11-2011 16:10:01 2.1 C 5.09 g/m*3 2.1 C 0 km/h
1282 28-11-2011 16:22:01 2 C 5.06 g/m*3 2 C 0 km/h
1283 28-11-2011 16:34:02 1.7 C 5.01 g/m*3 1.7 C 0 km/h
1284 28-11-2011 16:46:01 1.6 C 4.97 g/m*3 1.6 C 0 km/h
1285 28-11-2011 16:58:01 1.4 C 4.91 g/m*3 1.4 C 0 km/h
1286 28-11-2011 17:10:02 1.2 C 4.84 g/m*3 1.2 C 0 km/h
1287 28-11-2011 17:22:01 1 C 4.78 g/m*3 1 C 0 km/h
1288 28-11-2011 17:34:02 0.7 C 4.68 g/m*3 0.7 C 0 km/h
1289 28-11-2011 17:46:01 0.5 C 4.61 g/m*3 0.5 C 0 km/h
1290 28-11-2011 17:58:01 0.4 C 4.58 g/m*3 0.4 C 0 km/h
1291 28-11-2011 18:10:02 0.4 C 4.63 g/m*3 0.4 C 0 km/h
1292 28-11-2011 18:22:01 0.3 C 4.55 g/m*3 0.3 C 0 km/h
1293 28-11-2011 18:34:01 0.3 C 4.6 g/m*3 0.3 C 0 km/h
1294 28-11-2011 18:46:01 0.1 C 4.54 g/m*3 0.1 C 0 km/h
1295 28-11-2011 18:58:01 0 C 4.51 g/m*3 0 C 0 km/h
1296 28-11-2011 19:10:01 -0.1 C 4.47 g/m*3 -0.1 C 0 km/h
1297 28-11-2011 19:22:02 0 C 4.51 g/m*3 0 C 0 km/h
1298 28-11-2011 19:34:01 0 C 4.51 g/m*3 0 C 0 km/h
1299 28-11-2011 19:46:02 -0.3 C 4.41 g/m*3 -0.3 C 0 km/h
1300 28-11-2011 19:58:02 -0.5 C 4.35 g/m*3 -0.5 C 0 km/h
Sensor: Nr:Datum:Temp:Abs-Feuchte:Windchill:Wind:
Aussen-T/F 1301 28-11-2011 20:10:01 -0.5 C 4.35 g/m*3 -0.5 C 0 km/h
1302 28-11-2011 20:22:02 -0.6 C 4.32 g/m*3 -0.6 C 0 km/h
1303 28-11-2011 20:34:01 -0.6 C 4.32 g/m*3 -0.6 C 0 km/h
1304 28-11-2011 20:46:02 -0.6 C 4.32 g/m*3 -0.6 C 0 km/h
1305 28-11-2011 20:58:02 -0.5 C 4.35 g/m*3 -0.5 C 0 km/h
1306 28-11-2011 21:10:01 -0.6 C 4.32 g/m*3 -0.6 C 0 km/h
1307 28-11-2011 21:22:01 -0.6 C 4.32 g/m*3 -0.6 C 0 km/h
1308 28-11-2011 21:34:02 -0.7 C 4.29 g/m*3 -0.7 C 0 km/h
1309 28-11-2011 21:46:01 -0.9 C 4.23 g/m*3 -0.9 C 0 km/h
1310 28-11-2011 21:58:01 -1 C 4.2 g/m*3 -1 C 0 km/h
1311 28-11-2011 22:10:01 -1 C 4.2 g/m*3 -1 C 0 km/h
1312 28-11-2011 22:22:01 -1.1 C 4.17 g/m*3 -1.1 C 0 km/h
1313 28-11-2011 22:34:02 -1 C 4.2 g/m*3 -1 C 0 km/h
1314 28-11-2011 22:46:01 -0.9 C 4.23 g/m*3 -0.9 C 0 km/h
1315 28-11-2011 22:58:01 -0.7 C 4.29 g/m*3 -0.7 C 0 km/h
1316 28-11-2011 23:10:02 -0.9 C 4.23 g/m*3 -0.9 C 0 km/h
1317 28-11-2011 23:22:01 -0.9 C 4.23 g/m*3 -0.9 C 0 km/h
1318 28-11-2011 23:34:01 -0.9 C 4.23 g/m*3 -0.9 C 0 km/h
1319 28-11-2011 23:46:01 -0.7 C 4.34 g/m*3 -0.7 C 0 km/h
1320 28-11-2011 23:58:01 -0.9 C 4.28 g/m*3 -0.9 C 0 km/h
1321 29-11-2011 00:10:01 -0.8 C 4.31 g/m*3 -0.8 C 0 km/h
1322 29-11-2011 00:22:01 -0.6 C 4.37 g/m*3 -0.6 C 0 km/h
1323 29-11-2011 00:34:01 -0.7 C 4.34 g/m*3 -0.7 C 0 km/h
1324 29-11-2011 00:46:01 -0.7 C 4.34 g/m*3 -0.7 C 0 km/h
1325 29-11-2011 00:58:01 -0.9 C 4.28 g/m*3 -0.9 C 0 km/h
Sensor: Nr:Datum:Temp:Abs-Feuchte:Windchill:Wind:
Aussen-T/F 1326 29-11-2011 01:10:01 -1.1 C 4.22 g/m*3 -1.1 C 0 km/h
1327 29-11-2011 01:22:02 -1.2 C 4.19 g/m*3 -1.2 C 0 km/h
1328 29-11-2011 01:34:01 -1.2 C 4.19 g/m*3 -1.2 C 0 km/h
1329 29-11-2011 01:46:02 -1.3 C 4.16 g/m*3 -1.3 C 0 km/h
1330 29-11-2011 01:58:02 -1.2 C 4.19 g/m*3 -1.2 C 0 km/h
1331 29-11-2011 02:10:01 -1.2 C 4.19 g/m*3 -1.2 C 0 km/h
1332 29-11-2011 02:22:01 -1.3 C 4.16 g/m*3 -1.3 C 0 km/h
1333 29-11-2011 02:34:02 -1.2 C 4.19 g/m*3 -1.2 C 0 km/h
1334 29-11-2011 02:47:05 -1.3 C 4.16 g/m*3 -1.3 C 0 km/h
1335 29-11-2011 02:59:05 -1.2 C 4.19 g/m*3 -1.2 C 0 km/h
1336 29-11-2011 03:11:04 -1.2 C 4.19 g/m*3 -1.2 C 0 km/h
1337 29-11-2011 03:23:04 -1.1 C 4.22 g/m*3 -1.1 C 0 km/h
1338 29-11-2011 03:35:02 -1 C 4.25 g/m*3 -1 C 0 km/h
1339 29-11-2011 03:47:02 -0.7 C 4.34 g/m*3 -0.7 C 0 km/h
1340 29-11-2011 03:59:02 -0.8 C 4.31 g/m*3 -0.8 C 0 km/h
1341 29-11-2011 04:11:01 -0.7 C 4.34 g/m*3 -0.7 C 0 km/h
1342 29-11-2011 04:23:02 -0.5 C 4.4 g/m*3 -0.5 C 0 km/h
1343 29-11-2011 04:35:02 -0.4 C 4.43 g/m*3 -0.4 C 0 km/h
1344 29-11-2011 04:47:02 -0.3 C 4.46 g/m*3 -0.3 C 0 km/h
1345 29-11-2011 04:59:02 -0.2 C 4.49 g/m*3 -0.2 C 0 km/h
1346 29-11-2011 05:11:02 -0.2 C 4.49 g/m*3 -0.2 C 0 km/h
1347 29-11-2011 05:23:02 0 C 4.55 g/m*3 0 C 0 km/h
1348 29-11-2011 05:35:02 0.1 C 4.59 g/m*3 0.1 C 0 km/h
1349 29-11-2011 05:47:01 0.1 C 4.59 g/m*3 0.1 C 0 km/h
1350 29-11-2011 05:59:01 0.3 C 4.65 g/m*3 0.3 C 0 km/h
Sensor: Nr:Datum:Temp:Abs-Feuchte:Windchill:Wind:
Aussen-T/F 1351 29-11-2011 06:11:02 0.3 C 4.65 g/m*3 0.3 C 0 km/h
1352 29-11-2011 06:23:01 0.3 C 4.7 g/m*3 0.3 C 0 km/h
1353 29-11-2011 06:35:02 0.5 C 4.76 g/m*3 0.5 C 0 km/h
1354 29-11-2011 06:47:02 0.6 C 4.8 g/m*3 0.6 C 0 km/h
1355 29-11-2011 06:59:02 0.6 C 4.8 g/m*3 0.6 C 0 km/h
1356 29-11-2011 07:11:02 0.6 C 4.8 g/m*3 0.6 C 0 km/h
1357 29-11-2011 07:23:02 0.7 C 4.83 g/m*3 0.7 C 0 km/h
1358 29-11-2011 07:35:02 0.5 C 4.76 g/m*3 0.5 C 0 km/h
1359 29-11-2011 07:47:01 0.3 C 4.65 g/m*3 0.3 C 0 km/h
1360 29-11-2011 07:59:01 0.4 C 4.68 g/m*3 0.4 C 0 km/h
1361 29-11-2011 08:11:01 -0.4 C 4.43 g/m*3 -0.4 C 0 km/h
1362 29-11-2011 08:23:02 -0.7 C 4.34 g/m*3 -0.7 C 0 km/h
1363 29-11-2011 08:35:01 -0.2 C 4.49 g/m*3 -0.2 C 0 km/h
1364 29-11-2011 08:47:03 0.7 C 4.78 g/m*3 0.7 C 0 km/h
1365 29-11-2011 08:59:03 1.4 C 5.01 g/m*3 1.4 C 0 km/h
1366 29-11-2011 09:11:02 1.5 C 5.05 g/m*3 1.5 C 0 km/h
1367 29-11-2011 09:23:02 1.5 C 5.05 g/m*3 1.5 C 0 km/h
1368 29-11-2011 09:35:02 1.8 C 5.21 g/m*3 1.8 C 0 km/h
1369 29-11-2011 09:47:02 2 C 5.22 g/m*3 2 C 0 km/h
1370 29-11-2011 09:59:02 2.3 C 5.33 g/m*3 2.3 C 0 km/h
1371 29-11-2011 10:11:02 3.2 C 5.66 g/m*3 3.2 C 0 km/h
1372 29-11-2011 10:23:02 3.7 C 5.86 g/m*3 3.7 C 0 km/h
1373 29-11-2011 10:35:01 3.8 C 5.83 g/m*3 3.8 C 0 km/h
1374 29-11-2011 10:47:02 3.6 C 5.76 g/m*3 3.6 C 0 km/h
1375 29-11-2011 10:59:03 3.6 C 5.69 g/m*3 3.6 C 0 km/h
Sensor: Nr:Datum:Temp:Abs-Feuchte:Windchill:Wind:
Aussen-T/F 1376 29-11-2011 11:11:01 3.4 C 5.56 g/m*3 3.4 C 0 km/h
1377 29-11-2011 11:23:01 3.8 C 5.71 g/m*3 3.8 C 0 km/h
1378 29-11-2011 11:35:02 3.7 C 5.48 g/m*3 3.7 C 0 km/h
1379 29-11-2011 11:47:02 4.1 C 5.5 g/m*3 4.1 C 0 km/h
1380 29-11-2011 11:59:02 4.3 C 5.51 g/m*3 4.3 C 0 km/h
1381 29-11-2011 12:11:02 4.6 C 5.43 g/m*3 4.6 C 0 km/h
1382 29-11-2011 12:23:02 5.2 C 5.37 g/m*3 5.2 C 0 km/h
1383 29-11-2011 12:35:02 5.5 C 5.34 g/m*3 5.5 C 0 km/h
1384 29-11-2011 12:47:02 5.4 C 5.09 g/m*3 5.4 C 0 km/h
1385 29-11-2011 12:59:03 5.6 C 5.09 g/m*3 5.6 C 0 km/h
1386 29-11-2011 13:11:01 5.9 C 5.19 g/m*3 5.9 C 0 km/h
1387 29-11-2011 13:23:01 6.2 C 5.07 g/m*3 6.2 C 0 km/h
1388 29-11-2011 13:35:02 6.2 C 5 g/m*3 6.2 C 0 km/h
1389 29-11-2011 13:47:02 5.9 C 5.05 g/m*3 5.9 C 0 km/h
1390 29-11-2011 13:59:02 5.9 C 5.19 g/m*3 5.9 C 0 km/h
1391 29-11-2011 14:11:02 6.4 C 5.14 g/m*3 6.4 C 0 km/h
1392 29-11-2011 14:23:01 6.5 C 5.02 g/m*3 6.5 C 0 km/h
1393 29-11-2011 14:35:02 6.4 C 5.07 g/m*3 6.4 C 0 km/h
1394 29-11-2011 14:47:02 6 C 5.01 g/m*3 6 C 0 km/h
1395 29-11-2011 14:59:02 5.3 C 5.06 g/m*3 5.3 C 0 km/h
1396 29-11-2011 15:11:02 4.9 C 5.2 g/m*3 4.9 C 0 km/h
1397 29-11-2011 15:23:01 4.4 C 5.22 g/m*3 4.4 C 0 km/h
1398 29-11-2011 15:35:02 4.2 C 5.22 g/m*3 4.2 C 0 km/h
1399 29-11-2011 15:47:02 3.8 C 5.21 g/m*3 3.8 C 0 km/h
1400 29-11-2011 15:59:02 3.2 C 5.06 g/m*3 3.2 C 0 km/h
Sensor: Nr:Datum:Temp:Abs-Feuchte:Windchill:Wind:
Aussen-T/F 1401 29-11-2011 16:11:02 2.9 C 5.08 g/m*3 2.9 C 0 km/h
1402 29-11-2011 16:23:02 2.4 C 4.97 g/m*3 2.4 C 0 km/h
1403 29-11-2011 16:35:02 2.3 C 4.99 g/m*3 2.3 C 0 km/h
1404 29-11-2011 16:47:02 2.2 C 4.96 g/m*3 2.2 C 0 km/h
1405 29-11-2011 16:59:02 2 C 4.95 g/m*3 2 C 0 km/h
1406 29-11-2011 17:11:02 1.6 C 4.81 g/m*3 1.6 C 0 km/h
1407 29-11-2011 17:23:02 1.6 C 4.87 g/m*3 1.6 C 0 km/h
1408 29-11-2011 17:35:01 1.6 C 4.87 g/m*3 1.6 C 0 km/h
1409 29-11-2011 17:47:02 1.4 C 4.8 g/m*3 1.4 C 0 km/h
1410 29-11-2011 17:59:02 1.4 C 4.8 g/m*3 1.4 C 0 km/h
1411 29-11-2011 18:11:01 1.3 C 4.82 g/m*3 1.3 C 0 km/h
1412 29-11-2011 18:23:01 1.6 C 4.92 g/m*3 1.6 C 0 km/h
1413 29-11-2011 18:35:02 1.7 C 4.95 g/m*3 1.7 C 0 km/h
1414 29-11-2011 18:47:02 1.3 C 4.87 g/m*3 1.3 C 0 km/h
1415 29-11-2011 18:59:02 1.1 C 4.76 g/m*3 1.1 C 0 km/h
1416 29-11-2011 19:11:01 1.6 C 4.97 g/m*3 1.6 C 0 km/h
1417 29-11-2011 19:23:02 1.5 C 4.94 g/m*3 1.5 C 0 km/h
1418 29-11-2011 19:35:02 1.3 C 4.87 g/m*3 1.3 C 0 km/h
1419 29-11-2011 19:47:01 1.3 C 4.87 g/m*3 1.3 C 0 km/h
1420 29-11-2011 19:59:01 2 C 5.11 g/m*3 2 C 0 km/h
1421 29-11-2011 20:11:02 2 C 5.11 g/m*3 2 C 0 km/h
1422 29-11-2011 20:23:01 2.1 C 5.15 g/m*3 2.1 C 0 km/h
1423 29-11-2011 20:35:01 2.3 C 5.27 g/m*3 2.3 C 0 km/h
1424 29-11-2011 20:47:01 2.3 C 5.27 g/m*3 2.3 C 0 km/h
1425 29-11-2011 20:59:01 1.9 C 5.13 g/m*3 1.9 C 0 km/h
Sensor: Nr:Datum:Temp:Abs-Feuchte:Windchill:Wind:
Aussen-T/F 1426 29-11-2011 21:11:02 1.7 C 5.06 g/m*3 1.7 C 0 km/h
1427 29-11-2011 21:23:01 1.6 C 5.03 g/m*3 1.6 C 0 km/h
1428 29-11-2011 21:35:01 2.1 C 5.2 g/m*3 2.1 C 0 km/h
1429 29-11-2011 21:47:02 2.6 C 5.38 g/m*3 2.6 C 0 km/h
1430 29-11-2011 21:59:02 2.1 C 5.2 g/m*3 2.1 C 0 km/h
1431 29-11-2011 22:11:01 2.1 C 5.2 g/m*3 2.1 C 0 km/h
1432 29-11-2011 22:23:01 1.9 C 5.19 g/m*3 1.9 C 0 km/h
1433 29-11-2011 22:35:02 1.9 C 5.19 g/m*3 1.9 C 0 km/h
1434 29-11-2011 22:47:02 2.1 C 5.2 g/m*3 2.1 C 0 km/h
1435 29-11-2011 22:59:02 2.4 C 5.31 g/m*3 2.4 C 0 km/h
1436 29-11-2011 23:11:02 3.3 C 5.64 g/m*3 3.3 C 0 km/h
1437 29-11-2011 23:23:02 3.4 C 5.68 g/m*3 3.4 C 0 km/h
1438 29-11-2011 23:35:02 5.1 C 6.36 g/m*3 5.1 C 0 km/h
1439 29-11-2011 23:47:01 5.4 C 6.49 g/m*3 5.4 C 0 km/h
1440 29-11-2011 23:59:01 6.5 C 6.9 g/m*3 6.5 C 0 km/h
1441 30-11-2011 00:11:02 6.7 C 7.07 g/m*3 6.7 C 0 km/h
1442 30-11-2011 00:23:02 7 C 7.13 g/m*3 7 C 0 km/h
1443 30-11-2011 00:35:01 8.1 C 7.49 g/m*3 8.1 C 0 km/h
1444 30-11-2011 00:47:02 7.9 C 7.23 g/m*3 7.9 C 0 km/h
1445 30-11-2011 00:59:02 7.9 C 7.23 g/m*3 7.9 C 0 km/h
1446 30-11-2011 01:11:02 8.2 C 7.29 g/m*3 8.2 C 0 km/h
1447 30-11-2011 01:23:02 8.4 C 7.21 g/m*3 8.4 C 0 km/h
1448 30-11-2011 01:35:03 8.4 C 7.21 g/m*3 8.4 C 0 km/h
1449 30-11-2011 01:47:02 9 C 7.23 g/m*3 9 C 0 km/h
1450 30-11-2011 01:59:02 9.2 C 7.05 g/m*3 9.2 C 0 km/h
Sensor: Nr:Datum:Temp:Abs-Feuchte:Windchill:Wind:
Aussen-T/F 1451 30-11-2011 02:11:01 9.1 C 7.01 g/m*3 9.1 C 0 km/h
1452 30-11-2011 02:23:02 9.3 C 7.1 g/m*3 9.3 C 0 km/h
1453 30-11-2011 02:35:02 9.2 C 6.97 g/m*3 9.2 C 0 km/h
1454 30-11-2011 02:47:01 9.3 C 7.01 g/m*3 9.3 C 0 km/h
1455 30-11-2011 02:59:01 9.5 C 7.19 g/m*3 9.5 C 0 km/h
1456 30-11-2011 03:11:02 9.5 C 7.1 g/m*3 9.5 C 0 km/h
1457 30-11-2011 03:23:02 9.5 C 7.1 g/m*3 9.5 C 0 km/h
1458 30-11-2011 03:35:01 9.3 C 7.01 g/m*3 9.3 C 0 km/h
1459 30-11-2011 03:47:01 9.2 C 7.05 g/m*3 9.2 C 0 km/h
1460 30-11-2011 03:59:02 9 C 6.96 g/m*3 9 C 0 km/h
1461 30-11-2011 04:11:01 8.7 C 7.01 g/m*3 8.7 C 0 km/h
1462 30-11-2011 04:23:01 8.6 C 6.96 g/m*3 8.6 C 0 km/h
1463 30-11-2011 04:35:02 8.6 C 7.13 g/m*3 8.6 C 0 km/h
1464 30-11-2011 04:47:01 8.5 C 7.09 g/m*3 8.5 C 0 km/h
1465 30-11-2011 04:59:01 8.1 C 6.91 g/m*3 8.1 C 0 km/h
1466 30-11-2011 05:11:02 8.2 C 7.03 g/m*3 8.2 C 0 km/h
1467 30-11-2011 05:23:01 7.8 C 6.94 g/m*3 7.8 C 0 km/h
1468 30-11-2011 05:35:01 6.8 C 6.58 g/m*3 6.8 C 0 km/h
1469 30-11-2011 05:47:01 6.8 C 6.65 g/m*3 6.8 C 0 km/h
1470 30-11-2011 05:59:01 6.3 C 6.51 g/m*3 6.3 C 0 km/h
1471 30-11-2011 06:11:02 6.2 C 6.47 g/m*3 6.2 C 0 km/h
1472 30-11-2011 06:23:01 6 C 6.46 g/m*3 6 C 0 km/h
1473 30-11-2011 06:35:01 6 C 6.46 g/m*3 6 C 0 km/h
1474 30-11-2011 06:47:01 6 C 6.46 g/m*3 6 C 0 km/h
1475 30-11-2011 06:59:01 5.6 C 6.43 g/m*3 5.6 C 0 km/h
Sensor: Nr:Datum:Temp:Abs-Feuchte:Windchill:Wind:
Aussen-T/F 1476 30-11-2011 07:11:01 5.5 C 6.39 g/m*3 5.5 C 0 km/h
1477 30-11-2011 07:23:02 5.3 C 6.31 g/m*3 5.3 C 0 km/h
1478 30-11-2011 07:35:01 5.3 C 6.31 g/m*3 5.3 C 0 km/h
1479 30-11-2011 07:47:02 4.8 C 6.17 g/m*3 4.8 C 0 km/h
1480 30-11-2011 07:59:02 5 C 6.18 g/m*3 5 C 0 km/h
1481 30-11-2011 08:11:01 4.6 C 6.09 g/m*3 4.6 C 0 km/h
1482 30-11-2011 08:23:02 4.5 C 6.05 g/m*3 4.5 C 0 km/h
1483 30-11-2011 08:35:01 4 C 5.85 g/m*3 4 C 0 km/h
1484 30-11-2011 08:47:02 4.1 C 5.89 g/m*3 4.1 C 0 km/h
1485 30-11-2011 08:59:02 4.8 C 6.17 g/m*3 4.8 C 0 km/h
1486 30-11-2011 09:11:01 4.7 C 6.13 g/m*3 4.7 C 0 km/h
1487 30-11-2011 09:23:01 4.6 C 6.09 g/m*3 4.6 C 0 km/h
1488 30-11-2011 09:35:02 4 C 5.85 g/m*3 4 C 0 km/h
1489 30-11-2011 09:47:01 3.3 C 5.58 g/m*3 3.3 C 0 km/h
1490 30-11-2011 09:59:01 3.7 C 5.73 g/m*3 3.7 C 0 km/h
1491 30-11-2011 10:11:02 4 C 5.85 g/m*3 4 C 0 km/h
1492 30-11-2011 10:23:01 3.9 C 5.87 g/m*3 3.9 C 0 km/h
1493 30-11-2011 10:35:01 3.9 C 5.87 g/m*3 3.9 C 0 km/h
1494 30-11-2011 10:47:01 4.2 C 5.93 g/m*3 4.2 C 0 km/h
1495 30-11-2011 10:59:01 4.2 C 5.93 g/m*3 4.2 C 0 km/h
1496 30-11-2011 11:11:02 4.3 C 5.97 g/m*3 4.3 C 0 km/h
1497 30-11-2011 11:23:01 4.3 C 5.97 g/m*3 4.3 C 0 km/h
1498 30-11-2011 11:35:01 4.9 C 6.21 g/m*3 4.9 C 0 km/h
1499 30-11-2011 11:47:01 5.3 C 6.38 g/m*3 5.3 C 0 km/h
1500 30-11-2011 11:59:01 5.5 C 6.39 g/m*3 5.5 C 0 km/h
Sensor: Nr:Datum:Temp:Abs-Feuchte:Windchill:Wind:
Aussen-T/F 1501 30-11-2011 12:11:01 5.6 C 6.43 g/m*3 5.6 C 0 km/h
1502 30-11-2011 12:23:02 6.2 C 6.55 g/m*3 6.2 C 0 km/h
1503 30-11-2011 12:35:01 6.1 C 6.28 g/m*3 6.1 C 0 km/h
1504 30-11-2011 12:47:02 5.8 C 6.02 g/m*3 5.8 C 0 km/h
1505 30-11-2011 12:59:02 5.8 C 6.02 g/m*3 5.8 C 0 km/h
1506 30-11-2011 13:11:01 6.2 C 6.03 g/m*3 6.2 C 0 km/h
1507 30-11-2011 13:23:01 6.6 C 6.11 g/m*3 6.6 C 0 km/h
1508 30-11-2011 13:35:01 7 C 6.12 g/m*3 7 C 0 km/h
1509 30-11-2011 13:47:01 7.9 C 6.16 g/m*3 7.9 C 0 km/h
1510 30-11-2011 13:59:02 8.4 C 6.02 g/m*3 8.4 C 0 km/h
1511 30-11-2011 14:11:01 8.7 C 5.88 g/m*3 8.7 C 0 km/h
1512 30-11-2011 14:23:01 8.5 C 5.64 g/m*3 8.5 C 0 km/h
1513 30-11-2011 14:35:01 8.2 C 5.78 g/m*3 8.2 C 0 km/h
1514 30-11-2011 14:47:02 8.2 C 5.86 g/m*3 8.2 C 0 km/h
1515 30-11-2011 14:59:02 8.1 C 5.91 g/m*3 8.1 C 0 km/h
1516 30-11-2011 15:11:01 7.8 C 5.88 g/m*3 7.8 C 0 km/h
1517 30-11-2011 15:23:01 7.4 C 5.73 g/m*3 7.4 C 0 km/h
1518 30-11-2011 15:35:02 7.1 C 5.69 g/m*3 7.1 C 0 km/h
1519 30-11-2011 15:47:01 6.6 C 5.74 g/m*3 6.6 C 0 km/h
1520 30-11-2011 15:59:01 6.2 C 5.74 g/m*3 6.2 C 0 km/h
1521 30-11-2011 16:11:02 5.8 C 5.66 g/m*3 5.8 C 0 km/h
1522 30-11-2011 16:23:01 5.3 C 5.54 g/m*3 5.3 C 0 km/h
1523 30-11-2011 16:35:02 5.1 C 5.54 g/m*3 5.1 C 0 km/h
1524 30-11-2011 16:47:01 4.8 C 5.57 g/m*3 4.8 C 0 km/h
1525 30-11-2011 16:59:01 4.7 C 5.6 g/m*3 4.7 C 0 km/h
Sensor: Nr:Datum:Temp:Abs-Feuchte:Windchill:Wind:
Aussen-T/F 1526 30-11-2011 17:11:02 4.3 C 5.45 g/m*3 4.3 C 0 km/h
1527 30-11-2011 17:23:01 4.1 C 5.44 g/m*3 4.1 C 0 km/h
1528 30-11-2011 17:35:01 4.2 C 5.48 g/m*3 4.2 C 0 km/h
1529 30-11-2011 17:47:01 4.1 C 5.44 g/m*3 4.1 C 0 km/h
1530 30-11-2011 17:59:01 3.5 C 5.29 g/m*3 3.5 C 0 km/h
1531 30-11-2011 18:11:01 2.6 C 5.03 g/m*3 2.6 C 0 km/h
1532 30-11-2011 18:23:02 1.7 C 4.74 g/m*3 1.7 C 0 km/h
1533 30-11-2011 18:35:01 1.6 C 4.7 g/m*3 1.6 C 0 km/h
1534 30-11-2011 18:47:02 1.5 C 4.73 g/m*3 1.5 C 0 km/h
1535 30-11-2011 18:59:02 1.2 C 4.63 g/m*3 1.2 C 0 km/h
1536 30-11-2011 19:11:01 1 C 4.57 g/m*3 1 C 0 km/h
1537 30-11-2011 19:23:02 0.7 C 4.53 g/m*3 0.7 C 0 km/h
1538 30-11-2011 19:35:01 0.6 C 4.49 g/m*3 0.6 C 0 km/h
1539 30-11-2011 19:47:02 0.5 C 4.46 g/m*3 0.5 C 0 km/h
1540 30-11-2011 19:59:02 0.1 C 4.34 g/m*3 0.1 C 0 km/h
1541 30-11-2011 20:11:01 0 C 4.31 g/m*3 0 C 0 km/h
1542 30-11-2011 20:23:01 0 C 4.36 g/m*3 0 C 0 km/h
1543 30-11-2011 20:35:02 0.1 C 4.39 g/m*3 0.1 C 0 km/h
1544 30-11-2011 20:47:01 0 C 4.36 g/m*3 0 C 0 km/h
1545 30-11-2011 20:59:01 0.1 C 4.44 g/m*3 0.1 C 0 km/h
1546 30-11-2011 21:11:01 -0.5 C 4.26 g/m*3 -0.5 C 0 km/h
1547 30-11-2011 21:23:01 -0.5 C 4.26 g/m*3 -0.5 C 0 km/h
1548 30-11-2011 21:35:02 -0.7 C 4.2 g/m*3 -0.7 C 0 km/h
1549 30-11-2011 21:47:01 -0.6 C 4.23 g/m*3 -0.6 C 0 km/h
1550 30-11-2011 21:59:01 -0.9 C 4.14 g/m*3 -0.9 C 0 km/h
Sensor: Nr:Datum:Temp:Abs-Feuchte:Windchill:Wind:
Aussen-T/F 1551 30-11-2011 22:11:02 -0.6 C 4.23 g/m*3 -0.6 C 0 km/h
1552 30-11-2011 22:23:01 -0.9 C 4.14 g/m*3 -0.9 C 0 km/h
1553 30-11-2011 22:35:02 -0.7 C 4.25 g/m*3 -0.7 C 0 km/h
1554 30-11-2011 22:47:01 0.1 C 4.49 g/m*3 0.1 C 0 km/h
1555 30-11-2011 22:59:01 -0.5 C 4.31 g/m*3 -0.5 C 0 km/h
1556 30-11-2011 23:11:02 -1.3 C 4.07 g/m*3 -1.3 C 0 km/h
1557 30-11-2011 23:23:01 -1.2 C 4.1 g/m*3 -1.2 C 0 km/h
1558 30-11-2011 23:35:01 -1.7 C 3.96 g/m*3 -1.7 C 0 km/h
1559 30-11-2011 23:47:01 -1.2 C 4.1 g/m*3 -1.2 C 0 km/h
1560 30-11-2011 23:59:01 -1.3 C 4.07 g/m*3 -1.3 C 0 km/h
1561 01-12-2011 00:11:01 -1.7 C 3.96 g/m*3 -1.7 C 0 km/h
1562 01-12-2011 00:23:01 -1.8 C 3.93 g/m*3 -1.8 C 0 km/h
1563 01-12-2011 00:35:02 -1.7 C 3.96 g/m*3 -1.7 C 0 km/h
1564 01-12-2011 00:47:01 -1.7 C 3.96 g/m*3 -1.7 C 0 km/h
1565 01-12-2011 00:59:01 -1.4 C 4.09 g/m*3 -1.4 C 0 km/h
1566 01-12-2011 01:11:02 -1.8 C 3.93 g/m*3 -1.8 C 0 km/h
1567 01-12-2011 01:23:01 -1.2 C 4.15 g/m*3 -1.2 C 0 km/h
1568 01-12-2011 01:35:01 -1.6 C 4.03 g/m*3 -1.6 C 0 km/h
1569 01-12-2011 01:47:01 -1.8 C 3.98 g/m*3 -1.8 C 0 km/h
1570 01-12-2011 01:59:01 -2 C 3.92 g/m*3 -2 C 0 km/h
1571 01-12-2011 02:11:02 -2 C 3.92 g/m*3 -2 C 0 km/h
1572 01-12-2011 02:23:01 -2.1 C 3.89 g/m*3 -2.1 C 0 km/h
1573 01-12-2011 02:35:01 -2 C 3.92 g/m*3 -2 C 0 km/h
1574 01-12-2011 02:48:04 -2 C 3.92 g/m*3 -2 C 0 km/h
1575 01-12-2011 03:00:04 -1.6 C 4.03 g/m*3 -1.6 C 0 km/h
Sensor: Nr:Datum:Temp:Abs-Feuchte:Windchill:Wind:
Aussen-T/F 1576 01-12-2011 03:12:05 -1.4 C 4.09 g/m*3 -1.4 C 0 km/h
1577 01-12-2011 03:24:05 -1.7 C 4 g/m*3 -1.7 C 0 km/h
1578 01-12-2011 03:36:02 -1.4 C 4.09 g/m*3 -1.4 C 0 km/h
1579 01-12-2011 03:48:02 -0.9 C 4.23 g/m*3 -0.9 C 0 km/h
1580 01-12-2011 04:00:02 -0.8 C 4.31 g/m*3 -0.8 C 0 km/h
1581 01-12-2011 04:12:02 -0.3 C 4.46 g/m*3 -0.3 C 0 km/h
1582 01-12-2011 04:24:02 -0.4 C 4.43 g/m*3 -0.4 C 0 km/h
1583 01-12-2011 04:36:02 -0.5 C 4.4 g/m*3 -0.5 C 0 km/h
1584 01-12-2011 04:48:02 -0.4 C 4.43 g/m*3 -0.4 C 0 km/h
1585 01-12-2011 05:00:02 -0.2 C 4.49 g/m*3 -0.2 C 0 km/h
1586 01-12-2011 05:12:02 0 C 4.55 g/m*3 0 C 0 km/h
1587 01-12-2011 05:24:03 -0.2 C 4.49 g/m*3 -0.2 C 0 km/h
1588 01-12-2011 05:36:02 0.4 C 4.68 g/m*3 0.4 C 0 km/h
1589 01-12-2011 05:48:01 0.1 C 4.59 g/m*3 0.1 C 0 km/h
1590 01-12-2011 06:00:01 0.1 C 4.59 g/m*3 0.1 C 0 km/h
1591 01-12-2011 06:12:02 0.6 C 4.75 g/m*3 0.6 C 0 km/h
1592 01-12-2011 06:24:01 0.7 C 4.78 g/m*3 0.7 C 0 km/h
1593 01-12-2011 06:36:01 1.4 C 5.01 g/m*3 1.4 C 0 km/h
1594 01-12-2011 06:48:01 1.9 C 5.19 g/m*3 1.9 C 0 km/h
1595 01-12-2011 07:00:01 1.9 C 5.19 g/m*3 1.9 C 0 km/h
1596 01-12-2011 07:12:01 2.3 C 5.33 g/m*3 2.3 C 0 km/h
1597 01-12-2011 07:24:02 2.4 C 5.37 g/m*3 2.4 C 0 km/h
1598 01-12-2011 07:36:01 2.5 C 5.4 g/m*3 2.5 C 0 km/h
1599 01-12-2011 07:36:01 2.5 C 5.4 g/m*3 2.5 C 0 km/h
1600 01-12-2011 07:36:01 2.5 C 5.4 g/m*3 2.5 C 0 km/h
Sensor: Nr:Datum:Temp:Abs-Feuchte:Windchill:Wind:
Aussen-T/F 1601 01-12-2011 07:36:01 2.5 C 5.4 g/m*3 2.5 C 0 km/h
1602 01-12-2011 07:48:03 2.8 C 5.51 g/m*3 2.8 C 0 km/h
1603 01-12-2011 08:00:03 2.6 C 5.44 g/m*3 2.6 C 0 km/h
1604 01-12-2011 08:12:02 2.7 C 5.48 g/m*3 2.7 C 0 km/h
1605 01-12-2011 08:24:02 2.7 C 5.48 g/m*3 2.7 C 0 km/h
1606 01-12-2011 08:36:02 2.4 C 5.37 g/m*3 2.4 C 0 km/h
1607 01-12-2011 08:48:02 2.6 C 5.44 g/m*3 2.6 C 0 km/h
1608 01-12-2011 09:00:02 3 C 5.59 g/m*3 3 C 0 km/h
1609 01-12-2011 09:12:02 3.6 C 5.82 g/m*3 3.6 C 0 km/h
1610 01-12-2011 09:24:02 3.5 C 5.78 g/m*3 3.5 C 0 km/h
1611 01-12-2011 09:36:02 3.2 C 5.66 g/m*3 3.2 C 0 km/h
1612 01-12-2011 09:48:02 3.4 C 5.74 g/m*3 3.4 C 0 km/h
1613 01-12-2011 10:00:02 3.2 C 5.66 g/m*3 3.2 C 0 km/h
1614 01-12-2011 10:12:02 3.4 C 5.74 g/m*3 3.4 C 0 km/h
1615 01-12-2011 10:24:02 3.3 C 5.7 g/m*3 3.3 C 0 km/h
1616 01-12-2011 10:36:01 3.7 C 5.86 g/m*3 3.7 C 0 km/h
1617 01-12-2011 10:48:02 4 C 5.98 g/m*3 4 C 0 km/h
1618 01-12-2011 11:00:03 4.8 C 6.3 g/m*3 4.8 C 0 km/h
1619 01-12-2011 11:12:01 5.1 C 6.36 g/m*3 5.1 C 0 km/h
1620 01-12-2011 11:24:01 5.7 C 6.62 g/m*3 5.7 C 0 km/h
1621 01-12-2011 11:36:02 6 C 6.75 g/m*3 6 C 0 km/h
1622 01-12-2011 11:48:02 5.8 C 6.66 g/m*3 5.8 C 0 km/h
1623 01-12-2011 12:00:02 6.4 C 6.85 g/m*3 6.4 C 0 km/h
1624 01-12-2011 12:12:02 6.8 C 7.04 g/m*3 6.8 C 0 km/h
1625 01-12-2011 12:24:01 7.9 C 7.56 g/m*3 7.9 C 0 km/h
Sensor: Nr:Datum:Temp:Abs-Feuchte:Windchill:Wind:
Aussen-T/F 1626 01-12-2011 12:36:02 8.1 C 7.57 g/m*3 8.1 C 0 km/h
1627 01-12-2011 12:48:02 8.9 C 7.97 g/m*3 8.9 C 0 km/h
1628 01-12-2011 13:00:02 9.1 C 7.9 g/m*3 9.1 C 0 km/h
1629 01-12-2011 13:12:02 9.9 C 8.31 g/m*3 9.9 C 0 km/h
1630 01-12-2011 13:24:01 9.6 C 8.06 g/m*3 9.6 C 0 km/h
1631 01-12-2011 13:36:02 10.1 C 8.13 g/m*3 10.1 C 0 km/h
1632 01-12-2011 13:48:01 10.1 C 8.04 g/m*3 10.1 C 0 km/h
1633 01-12-2011 14:00:01 10 C 7.99 g/m*3 10 C 0 km/h
1634 01-12-2011 14:12:02 10.4 C 8.19 g/m*3 10.4 C 0 km/h
1635 01-12-2011 14:24:02 10.7 C 8.15 g/m*3 10.7 C 0 km/h
1636 01-12-2011 14:36:01 10.7 C 7.96 g/m*3 10.7 C 0 km/h
1637 01-12-2011 14:48:02 10.6 C 7.81 g/m*3 10.6 C 0 km/h
1638 01-12-2011 15:00:02 10.5 C 7.76 g/m*3 10.5 C 0 km/h
1639 01-12-2011 15:12:01 10.4 C 7.81 g/m*3 10.4 C 0 km/h
1640 01-12-2011 15:24:02 10.2 C 7.8 g/m*3 10.2 C 0 km/h
1641 01-12-2011 15:36:01 10.1 C 7.75 g/m*3 10.1 C 0 km/h
1642 01-12-2011 15:48:02 10.2 C 7.71 g/m*3 10.2 C 0 km/h
1643 01-12-2011 16:00:03 10.7 C 7.86 g/m*3 10.7 C 0 km/h
1644 01-12-2011 16:12:02 11 C 7.61 g/m*3 11 C 0 km/h
1645 01-12-2011 16:24:02 11.5 C 7.33 g/m*3 11.5 C 0 km/h
1646 01-12-2011 16:36:02 11.9 C 7.2 g/m*3 11.9 C 0 km/h
1647 01-12-2011 16:48:01 12.1 C 7.08 g/m*3 12.1 C 0 km/h
1648 01-12-2011 17:00:01 12 C 7.03 g/m*3 12 C 0 km/h
1649 01-12-2011 17:12:02 11.8 C 7.16 g/m*3 11.8 C 0 km/h
1650 01-12-2011 17:24:01 11.9 C 7.1 g/m*3 11.9 C 0 km/h
Sensor: Nr:Datum:Temp:Abs-Feuchte:Windchill:Wind:
Aussen-T/F 1651 01-12-2011 17:36:02 11.4 C 7.19 g/m*3 11.4 C 0 km/h
1652 01-12-2011 17:48:01 11.2 C 7.3 g/m*3 11.2 C 0 km/h
1653 01-12-2011 18:00:01 11.7 C 7.32 g/m*3 11.7 C 0 km/h
1654 01-12-2011 18:12:02 11.3 C 7.24 g/m*3 11.3 C 0 km/h
1655 01-12-2011 18:24:01 11.1 C 7.25 g/m*3 11.1 C 0 km/h
1656 01-12-2011 18:36:02 11 C 7.31 g/m*3 11 C 0 km/h
1657 01-12-2011 18:48:01 10.8 C 7.51 g/m*3 10.8 C 0 km/h
1658 01-12-2011 19:00:01 10.4 C 7.42 g/m*3 10.4 C 0 km/h
1659 01-12-2011 19:12:02 10.4 C 7.61 g/m*3 10.4 C 0 km/h
1660 01-12-2011 19:24:02 10.1 C 7.66 g/m*3 10.1 C 0 km/h
1661 01-12-2011 19:36:01 9.9 C 7.84 g/m*3 9.9 C 0 km/h
1662 01-12-2011 19:48:02 9.7 C 7.84 g/m*3 9.7 C 0 km/h
1663 01-12-2011 20:00:02 9.6 C 7.88 g/m*3 9.6 C 0 km/h
1664 01-12-2011 20:12:01 9.4 C 7.78 g/m*3 9.4 C 0 km/h
1665 01-12-2011 20:24:02 9.3 C 7.82 g/m*3 9.3 C 0 km/h
1666 01-12-2011 20:36:01 9.3 C 7.82 g/m*3 9.3 C 0 km/h
1667 01-12-2011 20:48:02 9.2 C 7.77 g/m*3 9.2 C 0 km/h
1668 01-12-2011 21:00:02 9.3 C 7.82 g/m*3 9.3 C 0 km/h
1669 01-12-2011 21:12:02 9.3 C 7.91 g/m*3 9.3 C 0 km/h
1670 01-12-2011 21:24:02 9.4 C 7.96 g/m*3 9.4 C 0 km/h
1671 01-12-2011 21:36:03 9.5 C 8.01 g/m*3 9.5 C 0 km/h
1672 01-12-2011 21:48:02 9.5 C 7.92 g/m*3 9.5 C 0 km/h
1673 01-12-2011 22:00:02 9.6 C 7.97 g/m*3 9.6 C 0 km/h
1674 01-12-2011 22:12:01 9.6 C 7.97 g/m*3 9.6 C 0 km/h
1675 01-12-2011 22:24:02 9.7 C 8.02 g/m*3 9.7 C 0 km/h
Sensor: Nr:Datum:Temp:Abs-Feuchte:Windchill:Wind:
Aussen-T/F 1676 01-12-2011 22:36:02 9.8 C 8.07 g/m*3 9.8 C 0 km/h
1677 01-12-2011 22:48:02 9.8 C 8.07 g/m*3 9.8 C 0 km/h
1678 01-12-2011 23:00:02 9.6 C 7.97 g/m*3 9.6 C 0 km/h
1679 01-12-2011 23:12:02 9.7 C 8.02 g/m*3 9.7 C 0 km/h
1680 01-12-2011 23:24:02 9.5 C 7.92 g/m*3 9.5 C 0 km/h
1681 01-12-2011 23:36:02 9.7 C 8.02 g/m*3 9.7 C 0 km/h
1682 01-12-2011 23:48:01 9.8 C 8.07 g/m*3 9.8 C 0 km/h

Legende:
   Min
   Max


Maximal/Minimal-Werte vom 18.11.2011 - 01.12.2011

Sensor Min Max Avg
Temp
(Aussen-T/F)
-3 °C
25-11-2011  03:57:04
12.1 °C
01-12-2011  16:48:01
3.85 °C
Abs-Feuchte
(Aussen-T/F)
3.56 g/m*3
25-11-2011  05:33:04
8.31 g/m*3
01-12-2011  13:12:02
5.46 g/m*3
Windchill
(Aussen-T/F)
-3 C
25-11-2011  03:57:04
12.1 C
01-12-2011  16:48:01
3.84 C

Die Daten stammen von einer Davis Vantage Pro 2 Wetter-Station und werden unter Linux mit der Software wview2wettercgi und aufbereitet. Alle Angaben erfolgen ohne Gewähr für ihre Vollständigkeit oder Richtigkeit.
Kontakt: Rainer Krienke krienke@uni-koblenz.de . Meine Webseiten an der Uni Koblenz oder privat.
Version: $Revision: 0.78 $